<?xml version="1.0" encoding="UTF-8" standalone="no" ?>
<gpx xmlns="http://www.topografix.com/GPX/1/1" xmlns:xsi="http://www.w3.org/2001/XMLSchema-instance" xsi:schemaLocation="http://www.topografix.com/GPX/1/1 http://www.topografix.com/GPX/1/1/gpx.xsd" version="1.1" creator="VisuGPX - https://www.visugpx.com">
  <metadata>
    <name>Montréal VTT</name>
  </metadata>
  <trk>
    <name><![CDATA[Montréal VTT]]></name>
    <trkseg>
      <trkpt lat="44.5284" lon="4.29226">
        <ele>288.78071</ele>
        <time>2021-03-27T18:42:00.113Z</time>
      </trkpt>
      <trkpt lat="44.52837" lon="4.2922">
        <ele>288.78071</ele>
        <time>2021-03-27T18:42:00.921Z</time>
      </trkpt>
      <trkpt lat="44.52833" lon="4.29191">
        <ele>288.78071</ele>
        <time>2021-03-27T18:42:04.525Z</time>
      </trkpt>
      <trkpt lat="44.52835" lon="4.29159">
        <ele>288.78071</ele>
        <time>2021-03-27T18:42:08.390Z</time>
      </trkpt>
      <trkpt lat="44.52829" lon="4.29128">
        <ele>288.78071</ele>
        <time>2021-03-27T18:42:12.345Z</time>
      </trkpt>
      <trkpt lat="44.52829" lon="4.29113">
        <ele>288.78071</ele>
        <time>2021-03-27T18:42:13.982Z</time>
      </trkpt>
      <trkpt lat="44.52828" lon="4.29067">
        <ele>288.605706</ele>
        <time>2021-03-27T18:42:19.503Z</time>
      </trkpt>
      <trkpt lat="44.52845" lon="4.29008">
        <ele>288.289771</ele>
        <time>2021-03-27T18:42:27.443Z</time>
      </trkpt>
      <trkpt lat="44.52868" lon="4.28891">
        <ele>287.687911</ele>
        <time>2021-03-27T18:42:43.556Z</time>
      </trkpt>
      <trkpt lat="44.52866" lon="4.28886">
        <ele>287.662685</ele>
        <time>2021-03-27T18:42:44.284Z</time>
      </trkpt>
      <trkpt lat="44.52874" lon="4.28865">
        <ele>287.543974</ele>
        <time>2021-03-27T18:42:48.128Z</time>
      </trkpt>
      <trkpt lat="44.52882" lon="4.28826">
        <ele>288.308787</ele>
        <time>2021-03-27T18:42:54.848Z</time>
      </trkpt>
      <trkpt lat="44.52884" lon="4.28776">
        <ele>289.370322</ele>
        <time>2021-03-27T18:43:03.799Z</time>
      </trkpt>
      <trkpt lat="44.52865" lon="4.28707">
        <ele>290.917419</ele>
        <time>2021-03-27T18:43:21.576Z</time>
      </trkpt>
      <trkpt lat="44.52863" lon="4.28698">
        <ele>291.113119</ele>
        <time>2021-03-27T18:43:23.925Z</time>
      </trkpt>
      <trkpt lat="44.52848" lon="4.28633">
        <ele>292.530476</ele>
        <time>2021-03-27T18:43:45.471Z</time>
      </trkpt>
      <trkpt lat="44.52842" lon="4.28595">
        <ele>294.206944</ele>
        <time>2021-03-27T18:43:58.056Z</time>
      </trkpt>
      <trkpt lat="44.52836" lon="4.28551">
        <ele>296.535947</ele>
        <time>2021-03-27T18:44:14.015Z</time>
      </trkpt>
      <trkpt lat="44.52839" lon="4.28542">
        <ele>297.075934</ele>
        <time>2021-03-27T18:44:18.342Z</time>
      </trkpt>
      <trkpt lat="44.52843" lon="4.28526">
        <ele>297.968675</ele>
        <time>2021-03-27T18:44:27.926Z</time>
      </trkpt>
      <trkpt lat="44.52895" lon="4.28374">
        <ele>306.9801</ele>
        <time>2021-03-27T18:45:55.451Z</time>
      </trkpt>
      <trkpt lat="44.52924" lon="4.28214">
        <ele>317.086655</ele>
        <time>2021-03-27T18:47:25.200Z</time>
      </trkpt>
      <trkpt lat="44.5296" lon="4.28071">
        <ele>325.616748</ele>
        <time>2021-03-27T18:48:44.913Z</time>
      </trkpt>
      <trkpt lat="44.52985" lon="4.27968">
        <ele>331.222071</ele>
        <time>2021-03-27T18:49:37.050Z</time>
      </trkpt>
      <trkpt lat="44.52986" lon="4.27894">
        <ele>334.867594</ele>
        <time>2021-03-27T18:50:10.283Z</time>
      </trkpt>
      <trkpt lat="44.52988" lon="4.27809">
        <ele>338.021656</ele>
        <time>2021-03-27T18:50:47.593Z</time>
      </trkpt>
      <trkpt lat="44.52949" lon="4.27577">
        <ele>345.966782</ele>
        <time>2021-03-27T18:52:21.514Z</time>
      </trkpt>
      <trkpt lat="44.5291" lon="4.27415">
        <ele>350.439928</ele>
        <time>2021-03-27T18:53:20.881Z</time>
      </trkpt>
      <trkpt lat="44.52899" lon="4.27321">
        <ele>352.337105</ele>
        <time>2021-03-27T18:53:50.089Z</time>
      </trkpt>
      <trkpt lat="44.52894" lon="4.27234">
        <ele>354.045186</ele>
        <time>2021-03-27T18:54:19.240Z</time>
      </trkpt>
      <trkpt lat="44.52891" lon="4.27204">
        <ele>354.652336</ele>
        <time>2021-03-27T18:54:28.833Z</time>
      </trkpt>
      <trkpt lat="44.52875" lon="4.27118">
        <ele>356.581865</ele>
        <time>2021-03-27T18:54:57.362Z</time>
      </trkpt>
      <trkpt lat="44.52871" lon="4.27096">
        <ele>357.119829</ele>
        <time>2021-03-27T18:55:05.946Z</time>
      </trkpt>
      <trkpt lat="44.52856" lon="4.27013">
        <ele>359.129811</ele>
        <time>2021-03-27T18:55:33.679Z</time>
      </trkpt>
      <trkpt lat="44.52834" lon="4.2696">
        <ele>360.554687</ele>
        <time>2021-03-27T18:55:56.566Z</time>
      </trkpt>
      <trkpt lat="44.5279" lon="4.2688">
        <ele>363.187669</ele>
        <time>2021-03-27T18:56:33.822Z</time>
      </trkpt>
      <trkpt lat="44.52773" lon="4.26859">
        <ele>364.046401</ele>
        <time>2021-03-27T18:56:45.312Z</time>
      </trkpt>
      <trkpt lat="44.52771" lon="4.26847">
        <ele>364.363003</ele>
        <time>2021-03-27T18:56:48.219Z</time>
      </trkpt>
      <trkpt lat="44.52758" lon="4.26826">
        <ele>365.133411</ele>
        <time>2021-03-27T18:56:57.385Z</time>
      </trkpt>
      <trkpt lat="44.52759" lon="4.26818">
        <ele>365.377059</ele>
        <time>2021-03-27T18:57:01.743Z</time>
      </trkpt>
      <trkpt lat="44.52761" lon="4.26723">
        <ele>367.951849</ele>
        <time>2021-03-27T18:57:35.573Z</time>
      </trkpt>
      <trkpt lat="44.52769" lon="4.26671">
        <ele>369.21437</ele>
        <time>2021-03-27T18:57:55.885Z</time>
      </trkpt>
      <trkpt lat="44.5278" lon="4.26646">
        <ele>369.870134</ele>
        <time>2021-03-27T18:58:06.244Z</time>
      </trkpt>
      <trkpt lat="44.52778" lon="4.26601">
        <ele>370.887663</ele>
        <time>2021-03-27T18:58:22.846Z</time>
      </trkpt>
      <trkpt lat="44.52785" lon="4.26546">
        <ele>372.130474</ele>
        <time>2021-03-27T18:58:41.123Z</time>
      </trkpt>
      <trkpt lat="44.52798" lon="4.26531">
        <ele>372.657654</ele>
        <time>2021-03-27T18:58:48.650Z</time>
      </trkpt>
      <trkpt lat="44.52821" lon="4.2652">
        <ele>373.441091</ele>
        <time>2021-03-27T18:58:59.533Z</time>
      </trkpt>
      <trkpt lat="44.52842" lon="4.26492">
        <ele>374.118662</ele>
        <time>2021-03-27T18:59:12.177Z</time>
      </trkpt>
      <trkpt lat="44.52881" lon="4.26492">
        <ele>374.707725</ele>
        <time>2021-03-27T18:59:28.519Z</time>
      </trkpt>
      <trkpt lat="44.52888" lon="4.26484">
        <ele>374.84947</ele>
        <time>2021-03-27T18:59:31.683Z</time>
      </trkpt>
      <trkpt lat="44.52893" lon="4.26468">
        <ele>375.036087</ele>
        <time>2021-03-27T18:59:36.080Z</time>
      </trkpt>
      <trkpt lat="44.52893" lon="4.26455">
        <ele>375.172871</ele>
        <time>2021-03-27T18:59:39.124Z</time>
      </trkpt>
      <trkpt lat="44.52882" lon="4.26441">
        <ele>375.4065</ele>
        <time>2021-03-27T18:59:43.923Z</time>
      </trkpt>
      <trkpt lat="44.52854" lon="4.26434">
        <ele>375.834196</ele>
        <time>2021-03-27T18:59:53.741Z</time>
      </trkpt>
      <trkpt lat="44.52848" lon="4.26421">
        <ele>376.006938</ele>
        <time>2021-03-27T18:59:57.350Z</time>
      </trkpt>
      <trkpt lat="44.52855" lon="4.26411">
        <ele>376.16588</ele>
        <time>2021-03-27T19:00:01.967Z</time>
      </trkpt>
      <trkpt lat="44.52862" lon="4.26404">
        <ele>376.29644</ele>
        <time>2021-03-27T19:00:05.093Z</time>
      </trkpt>
      <trkpt lat="44.52868" lon="4.264">
        <ele>376.391344</ele>
        <time>2021-03-27T19:00:07.470Z</time>
      </trkpt>
      <trkpt lat="44.52867" lon="4.26387">
        <ele>376.528019</ele>
        <time>2021-03-27T19:00:09.564Z</time>
      </trkpt>
      <trkpt lat="44.52868" lon="4.26377">
        <ele>376.642643</ele>
        <time>2021-03-27T19:00:12.177Z</time>
      </trkpt>
      <trkpt lat="44.52873" lon="4.26363">
        <ele>377.207357</ele>
        <time>2021-03-27T19:00:15.851Z</time>
      </trkpt>
      <trkpt lat="44.52866" lon="4.26328">
        <ele>378.52896</ele>
        <time>2021-03-27T19:00:24.893Z</time>
      </trkpt>
      <trkpt lat="44.52861" lon="4.263">
        <ele>379.563544</ele>
        <time>2021-03-27T19:00:32.415Z</time>
      </trkpt>
      <trkpt lat="44.52877" lon="4.2629">
        <ele>380.440774</ele>
        <time>2021-03-27T19:00:40.169Z</time>
      </trkpt>
      <trkpt lat="44.52901" lon="4.26279">
        <ele>381.720001</ele>
        <time>2021-03-27T19:00:50.699Z</time>
      </trkpt>
      <trkpt lat="44.5296" lon="4.26124">
        <ele>389.030287</ele>
        <time>2021-03-27T19:01:59.716Z</time>
      </trkpt>
      <trkpt lat="44.52969" lon="4.26082">
        <ele>391.321799</ele>
        <time>2021-03-27T19:02:20.943Z</time>
      </trkpt>
      <trkpt lat="44.5297" lon="4.26057">
        <ele>392.602651</ele>
        <time>2021-03-27T19:02:31.293Z</time>
      </trkpt>
      <trkpt lat="44.52965" lon="4.25958">
        <ele>397.684532</ele>
        <time>2021-03-27T19:03:08.819Z</time>
      </trkpt>
      <trkpt lat="44.52948" lon="4.2596">
        <ele>398.858104</ele>
        <time>2021-03-27T19:03:16.036Z</time>
      </trkpt>
      <trkpt lat="44.52942" lon="4.25905">
        <ele>401.033066</ele>
        <time>2021-03-27T19:03:32.877Z</time>
      </trkpt>
      <trkpt lat="44.52937" lon="4.25891">
        <ele>401.685243</ele>
        <time>2021-03-27T19:03:37.922Z</time>
      </trkpt>
      <trkpt lat="44.52932" lon="4.25883">
        <ele>402.08292</ele>
        <time>2021-03-27T19:03:40.998Z</time>
      </trkpt>
      <trkpt lat="44.52921" lon="4.25841">
        <ele>403.86667</ele>
        <time>2021-03-27T19:03:54.806Z</time>
      </trkpt>
      <trkpt lat="44.52926" lon="4.25818">
        <ele>404.824668</ele>
        <time>2021-03-27T19:04:02.228Z</time>
      </trkpt>
      <trkpt lat="44.52926" lon="4.2581">
        <ele>405.141315</ele>
        <time>2021-03-27T19:04:04.679Z</time>
      </trkpt>
      <trkpt lat="44.52921" lon="4.25806">
        <ele>405.466338</ele>
        <time>2021-03-27T19:04:07.187Z</time>
      </trkpt>
      <trkpt lat="44.5292" lon="4.25804">
        <ele>405.565169</ele>
        <time>2021-03-27T19:04:07.952Z</time>
      </trkpt>
      <trkpt lat="44.52922" lon="4.25791">
        <ele>406.082717</ele>
        <time>2021-03-27T19:04:11.959Z</time>
      </trkpt>
      <trkpt lat="44.52923" lon="4.25792">
        <ele>406.13719</ele>
        <time>2021-03-27T19:04:12.381Z</time>
      </trkpt>
      <trkpt lat="44.52923" lon="4.25795">
        <ele>406.255899</ele>
        <time>2021-03-27T19:04:13.301Z</time>
      </trkpt>
      <trkpt lat="44.52916" lon="4.25792">
        <ele>406.670605</ele>
        <time>2021-03-27T19:04:16.504Z</time>
      </trkpt>
      <trkpt lat="44.52918" lon="4.2579">
        <ele>406.848069</ele>
        <time>2021-03-27T19:04:17.876Z</time>
      </trkpt>
      <trkpt lat="44.52923" lon="4.25791">
        <ele>407.112941</ele>
        <time>2021-03-27T19:04:19.919Z</time>
      </trkpt>
      <trkpt lat="44.52923" lon="4.25788">
        <ele>407.25016</ele>
        <time>2021-03-27T19:04:20.981Z</time>
      </trkpt>
      <trkpt lat="44.52925" lon="4.25777">
        <ele>407.706509</ele>
        <time>2021-03-27T19:04:24.512Z</time>
      </trkpt>
      <trkpt lat="44.52929" lon="4.2578">
        <ele>407.98019</ele>
        <time>2021-03-27T19:04:26.624Z</time>
      </trkpt>
      <trkpt lat="44.52954" lon="4.25718">
        <ele>411.18097</ele>
        <time>2021-03-27T19:04:54.593Z</time>
      </trkpt>
      <trkpt lat="44.52947" lon="4.2551">
        <ele>421.047479</ele>
        <time>2021-03-27T19:06:36.507Z</time>
      </trkpt>
      <trkpt lat="44.5295" lon="4.25473">
        <ele>422.84959</ele>
        <time>2021-03-27T19:06:53.162Z</time>
      </trkpt>
      <trkpt lat="44.5295" lon="4.2546">
        <ele>423.477811</ele>
        <time>2021-03-27T19:07:00.047Z</time>
      </trkpt>
      <trkpt lat="44.52973" lon="4.25401">
        <ele>426.730055</ele>
        <time>2021-03-27T19:07:31.607Z</time>
      </trkpt>
      <trkpt lat="44.5301" lon="4.25324">
        <ele>431.239655</ele>
        <time>2021-03-27T19:08:15.651Z</time>
      </trkpt>
      <trkpt lat="44.53036" lon="4.25289">
        <ele>433.485204</ele>
        <time>2021-03-27T19:08:39.281Z</time>
      </trkpt>
      <trkpt lat="44.53061" lon="4.25246">
        <ele>435.43095</ele>
        <time>2021-03-27T19:09:03.436Z</time>
      </trkpt>
      <trkpt lat="44.5309" lon="4.25162">
        <ele>438.717638</ele>
        <time>2021-03-27T19:09:40.972Z</time>
      </trkpt>
      <trkpt lat="44.53115" lon="4.25043">
        <ele>442.955665</ele>
        <time>2021-03-27T19:10:25.224Z</time>
      </trkpt>
      <trkpt lat="44.53112" lon="4.25004">
        <ele>444.203031</ele>
        <time>2021-03-27T19:10:39.497Z</time>
      </trkpt>
      <trkpt lat="44.53123" lon="4.24985">
        <ele>444.958352</ele>
        <time>2021-03-27T19:10:48.985Z</time>
      </trkpt>
      <trkpt lat="44.5315" lon="4.24925">
        <ele>447.21555</ele>
        <time>2021-03-27T19:11:16.939Z</time>
      </trkpt>
      <trkpt lat="44.53164" lon="4.24891">
        <ele>448.475875</ele>
        <time>2021-03-27T19:11:32.795Z</time>
      </trkpt>
      <trkpt lat="44.53174" lon="4.24857">
        <ele>449.644191</ele>
        <time>2021-03-27T19:11:47.388Z</time>
      </trkpt>
      <trkpt lat="44.53186" lon="4.24824">
        <ele>451.217128</ele>
        <time>2021-03-27T19:12:01.835Z</time>
      </trkpt>
      <trkpt lat="44.53193" lon="4.248">
        <ele>452.407562</ele>
        <time>2021-03-27T19:12:13.089Z</time>
      </trkpt>
      <trkpt lat="44.53218" lon="4.24763">
        <ele>454.658291</ele>
        <time>2021-03-27T19:12:34.307Z</time>
      </trkpt>
      <trkpt lat="44.53296" lon="4.24687">
        <ele>460.640195</ele>
        <time>2021-03-27T19:13:38.404Z</time>
      </trkpt>
      <trkpt lat="44.53338" lon="4.24631">
        <ele>465.110152</ele>
        <time>2021-03-27T19:14:17.670Z</time>
      </trkpt>
      <trkpt lat="44.53341" lon="4.24614">
        <ele>466.080465</ele>
        <time>2021-03-27T19:14:27.751Z</time>
      </trkpt>
      <trkpt lat="44.53351" lon="4.246">
        <ele>467.171668</ele>
        <time>2021-03-27T19:14:34.399Z</time>
      </trkpt>
      <trkpt lat="44.53362" lon="4.24584">
        <ele>468.499606</ele>
        <time>2021-03-27T19:14:44.004Z</time>
      </trkpt>
      <trkpt lat="44.53376" lon="4.24563">
        <ele>470.059191</ele>
        <time>2021-03-27T19:14:54.660Z</time>
      </trkpt>
      <trkpt lat="44.53396" lon="4.24537">
        <ele>472.263028</ele>
        <time>2021-03-27T19:15:13.892Z</time>
      </trkpt>
      <trkpt lat="44.53408" lon="4.24523">
        <ele>473.45247</ele>
        <time>2021-03-27T19:15:22.442Z</time>
      </trkpt>
      <trkpt lat="44.53421" lon="4.24508">
        <ele>474.785568</ele>
        <time>2021-03-27T19:15:35.180Z</time>
      </trkpt>
      <trkpt lat="44.53455" lon="4.24478">
        <ele>477.393402</ele>
        <time>2021-03-27T19:15:59.207Z</time>
      </trkpt>
      <trkpt lat="44.53498" lon="4.24467">
        <ele>480.089753</ele>
        <time>2021-03-27T19:16:22.029Z</time>
      </trkpt>
      <trkpt lat="44.53512" lon="4.2446">
        <ele>481.024289</ele>
        <time>2021-03-27T19:16:31.627Z</time>
      </trkpt>
      <trkpt lat="44.53553" lon="4.2443">
        <ele>483.878138</ele>
        <time>2021-03-27T19:16:53.368Z</time>
      </trkpt>
      <trkpt lat="44.53572" lon="4.24414">
        <ele>485.215681</ele>
        <time>2021-03-27T19:17:01.842Z</time>
      </trkpt>
      <trkpt lat="44.53608" lon="4.2436">
        <ele>487.144676</ele>
        <time>2021-03-27T19:17:20.088Z</time>
      </trkpt>
      <trkpt lat="44.53624" lon="4.24331">
        <ele>487.728872</ele>
        <time>2021-03-27T19:17:29.597Z</time>
      </trkpt>
      <trkpt lat="44.53646" lon="4.24275">
        <ele>488.727269</ele>
        <time>2021-03-27T19:17:39.789Z</time>
      </trkpt>
      <trkpt lat="44.53644" lon="4.24248">
        <ele>489.16393</ele>
        <time>2021-03-27T19:17:43.683Z</time>
      </trkpt>
      <trkpt lat="44.53612" lon="4.24167">
        <ele>490.906753</ele>
        <time>2021-03-27T19:18:01.496Z</time>
      </trkpt>
      <trkpt lat="44.53604" lon="4.2409">
        <ele>493.688447</ele>
        <time>2021-03-27T19:18:24.939Z</time>
      </trkpt>
      <trkpt lat="44.53592" lon="4.24033">
        <ele>495.785893</ele>
        <time>2021-03-27T19:18:44.045Z</time>
      </trkpt>
      <trkpt lat="44.53588" lon="4.2401">
        <ele>496.639494</ele>
        <time>2021-03-27T19:18:54.087Z</time>
      </trkpt>
      <trkpt lat="44.53585" lon="4.24002">
        <ele>496.947339</ele>
        <time>2021-03-27T19:18:57.510Z</time>
      </trkpt>
      <trkpt lat="44.53578" lon="4.23992">
        <ele>497.455389</ele>
        <time>2021-03-27T19:19:04.124Z</time>
      </trkpt>
      <trkpt lat="44.53575" lon="4.23981">
        <ele>497.897728</ele>
        <time>2021-03-27T19:19:09.501Z</time>
      </trkpt>
      <trkpt lat="44.5358" lon="4.23976">
        <ele>498.206382</ele>
        <time>2021-03-27T19:19:14.022Z</time>
      </trkpt>
      <trkpt lat="44.5359" lon="4.23968">
        <ele>498.745216</ele>
        <time>2021-03-27T19:19:18.891Z</time>
      </trkpt>
      <trkpt lat="44.53594" lon="4.23964">
        <ele>499.025624</ele>
        <time>2021-03-27T19:19:22.380Z</time>
      </trkpt>
      <trkpt lat="44.53656" lon="4.23934">
        <ele>501.504335</ele>
        <time>2021-03-27T19:20:01.791Z</time>
      </trkpt>
      <trkpt lat="44.53679" lon="4.23925">
        <ele>502.35928</ele>
        <time>2021-03-27T19:20:15.540Z</time>
      </trkpt>
      <trkpt lat="44.53707" lon="4.23919">
        <ele>503.420864</ele>
        <time>2021-03-27T19:20:30.942Z</time>
      </trkpt>
      <trkpt lat="44.53733" lon="4.23907">
        <ele>504.397764</ele>
        <time>2021-03-27T19:20:44.008Z</time>
      </trkpt>
      <trkpt lat="44.53765" lon="4.23895">
        <ele>505.617561</ele>
        <time>2021-03-27T19:20:55.949Z</time>
      </trkpt>
      <trkpt lat="44.53781" lon="4.23892">
        <ele>505.832701</ele>
        <time>2021-03-27T19:21:01.446Z</time>
      </trkpt>
      <trkpt lat="44.53789" lon="4.23882">
        <ele>505.710326</ele>
        <time>2021-03-27T19:21:04.318Z</time>
      </trkpt>
      <trkpt lat="44.53845" lon="4.23785">
        <ele>504.650741</ele>
        <time>2021-03-27T19:21:28.735Z</time>
      </trkpt>
      <trkpt lat="44.53858" lon="4.23768">
        <ele>504.447882</ele>
        <time>2021-03-27T19:21:33.395Z</time>
      </trkpt>
      <trkpt lat="44.53893" lon="4.23745">
        <ele>503.989025</ele>
        <time>2021-03-27T19:21:44.109Z</time>
      </trkpt>
      <trkpt lat="44.53894" lon="4.23743">
        <ele>503.965735</ele>
        <time>2021-03-27T19:21:44.511Z</time>
      </trkpt>
      <trkpt lat="44.53909" lon="4.23728">
        <ele>503.88417</ele>
        <time>2021-03-27T19:21:50.827Z</time>
      </trkpt>
      <trkpt lat="44.53959" lon="4.23707">
        <ele>504.875458</ele>
        <time>2021-03-27T19:22:08.436Z</time>
      </trkpt>
      <trkpt lat="44.54037" lon="4.23664">
        <ele>506.486633</ele>
        <time>2021-03-27T19:22:43.164Z</time>
      </trkpt>
      <trkpt lat="44.54126" lon="4.2364">
        <ele>510.167594</ele>
        <time>2021-03-27T19:23:33.281Z</time>
      </trkpt>
      <trkpt lat="44.54149" lon="4.23626">
        <ele>511.559083</ele>
        <time>2021-03-27T19:23:47.675Z</time>
      </trkpt>
      <trkpt lat="44.54161" lon="4.23613">
        <ele>512.405963</ele>
        <time>2021-03-27T19:23:57.050Z</time>
      </trkpt>
      <trkpt lat="44.54165" lon="4.23584">
        <ele>513.638036</ele>
        <time>2021-03-27T19:24:09.903Z</time>
      </trkpt>
      <trkpt lat="44.54175" lon="4.23564">
        <ele>514.619672</ele>
        <time>2021-03-27T19:24:20.495Z</time>
      </trkpt>
      <trkpt lat="44.54218" lon="4.23538">
        <ele>517.261871</ele>
        <time>2021-03-27T19:24:51.051Z</time>
      </trkpt>
      <trkpt lat="44.54235" lon="4.23522">
        <ele>518.767684</ele>
        <time>2021-03-27T19:25:06.364Z</time>
      </trkpt>
      <trkpt lat="44.54246" lon="4.23457">
        <ele>522.419284</ele>
        <time>2021-03-27T19:25:37.074Z</time>
      </trkpt>
      <trkpt lat="44.54252" lon="4.23431">
        <ele>523.907479</ele>
        <time>2021-03-27T19:25:51.582Z</time>
      </trkpt>
      <trkpt lat="44.54264" lon="4.23413">
        <ele>525.253436</ele>
        <time>2021-03-27T19:26:01.603Z</time>
      </trkpt>
      <trkpt lat="44.5427" lon="4.23407">
        <ele>525.79202</ele>
        <time>2021-03-27T19:26:06.798Z</time>
      </trkpt>
      <trkpt lat="44.54276" lon="4.23397">
        <ele>526.503192</ele>
        <time>2021-03-27T19:26:14.250Z</time>
      </trkpt>
      <trkpt lat="44.54343" lon="4.23355">
        <ele>532.270658</ele>
        <time>2021-03-27T19:27:10.712Z</time>
      </trkpt>
      <trkpt lat="44.54355" lon="4.23384">
        <ele>534.345739</ele>
        <time>2021-03-27T19:27:24.778Z</time>
      </trkpt>
      <trkpt lat="44.54362" lon="4.23384">
        <ele>535.002805</ele>
        <time>2021-03-27T19:27:31.217Z</time>
      </trkpt>
      <trkpt lat="44.54399" lon="4.23338">
        <ele>539.318614</ele>
        <time>2021-03-27T19:28:11.687Z</time>
      </trkpt>
      <trkpt lat="44.54405" lon="4.23331">
        <ele>540.034386</ele>
        <time>2021-03-27T19:28:15.964Z</time>
      </trkpt>
      <trkpt lat="44.54418" lon="4.23331">
        <ele>541.092113</ele>
        <time>2021-03-27T19:28:23.007Z</time>
      </trkpt>
      <trkpt lat="44.54421" lon="4.23333">
        <ele>541.455091</ele>
        <time>2021-03-27T19:28:28.416Z</time>
      </trkpt>
      <trkpt lat="44.54425" lon="4.23333">
        <ele>541.73489</ele>
        <time>2021-03-27T19:28:33.039Z</time>
      </trkpt>
      <trkpt lat="44.54476" lon="4.2324">
        <ele>549.1632</ele>
        <time>2021-03-27T19:29:33.785Z</time>
      </trkpt>
      <trkpt lat="44.54475" lon="4.2322">
        <ele>550.436709</ele>
        <time>2021-03-27T19:29:42.685Z</time>
      </trkpt>
      <trkpt lat="44.54471" lon="4.2321">
        <ele>551.193424</ele>
        <time>2021-03-27T19:29:53.029Z</time>
      </trkpt>
      <trkpt lat="44.54466" lon="4.23201">
        <ele>551.944906</ele>
        <time>2021-03-27T19:29:58.851Z</time>
      </trkpt>
      <trkpt lat="44.54431" lon="4.23158">
        <ele>556.155272</ele>
        <time>2021-03-27T19:30:35.366Z</time>
      </trkpt>
      <trkpt lat="44.54416" lon="4.23131">
        <ele>558.410729</ele>
        <time>2021-03-27T19:30:53.396Z</time>
      </trkpt>
      <trkpt lat="44.54416" lon="4.23127">
        <ele>558.617511</ele>
        <time>2021-03-27T19:30:55.280Z</time>
      </trkpt>
      <trkpt lat="44.54429" lon="4.23139">
        <ele>560.055119</ele>
        <time>2021-03-27T19:31:05.136Z</time>
      </trkpt>
      <trkpt lat="44.54512" lon="4.23174">
        <ele>568.549602</ele>
        <time>2021-03-27T19:32:03.680Z</time>
      </trkpt>
      <trkpt lat="44.54546" lon="4.23176">
        <ele>572.05025</ele>
        <time>2021-03-27T19:32:27.546Z</time>
      </trkpt>
      <trkpt lat="44.54628" lon="4.23136">
        <ele>581.039197</ele>
        <time>2021-03-27T19:33:36.079Z</time>
      </trkpt>
      <trkpt lat="44.54697" lon="4.23055">
        <ele>589.880487</ele>
        <time>2021-03-27T19:34:35.506Z</time>
      </trkpt>
      <trkpt lat="44.54705" lon="4.2304">
        <ele>591.253165</ele>
        <time>2021-03-27T19:34:42.603Z</time>
      </trkpt>
      <trkpt lat="44.54705" lon="4.23035">
        <ele>591.581314</ele>
        <time>2021-03-27T19:34:47.124Z</time>
      </trkpt>
      <trkpt lat="44.54704" lon="4.2303">
        <ele>591.953377</ele>
        <time>2021-03-27T19:34:49.205Z</time>
      </trkpt>
      <trkpt lat="44.54658" lon="4.23017">
        <ele>596.578616</ele>
        <time>2021-03-27T19:35:22.458Z</time>
      </trkpt>
      <trkpt lat="44.54598" lon="4.23017">
        <ele>602.491222</ele>
        <time>2021-03-27T19:36:04.237Z</time>
      </trkpt>
      <trkpt lat="44.54562" lon="4.23008">
        <ele>606.077513</ele>
        <time>2021-03-27T19:36:29.964Z</time>
      </trkpt>
      <trkpt lat="44.54557" lon="4.23002">
        <ele>606.764368</ele>
        <time>2021-03-27T19:36:33.536Z</time>
      </trkpt>
      <trkpt lat="44.54556" lon="4.22992">
        <ele>607.484417</ele>
        <time>2021-03-27T19:36:41.165Z</time>
      </trkpt>
      <trkpt lat="44.54561" lon="4.22983">
        <ele>608.327908</ele>
        <time>2021-03-27T19:36:45.488Z</time>
      </trkpt>
      <trkpt lat="44.54611" lon="4.22946">
        <ele>613.84778</ele>
        <time>2021-03-27T19:37:20.662Z</time>
      </trkpt>
      <trkpt lat="44.54672" lon="4.22909">
        <ele>620.577601</ele>
        <time>2021-03-27T19:38:12.048Z</time>
      </trkpt>
      <trkpt lat="44.54753" lon="4.2281">
        <ele>631.659633</ele>
        <time>2021-03-27T19:39:32.284Z</time>
      </trkpt>
      <trkpt lat="44.54792" lon="4.22771">
        <ele>636.360667</ele>
        <time>2021-03-27T19:40:04.131Z</time>
      </trkpt>
      <trkpt lat="44.54807" lon="4.22742">
        <ele>637.977535</ele>
        <time>2021-03-27T19:40:20.517Z</time>
      </trkpt>
      <trkpt lat="44.54815" lon="4.22691">
        <ele>640.319146</ele>
        <time>2021-03-27T19:40:43.155Z</time>
      </trkpt>
      <trkpt lat="44.5481" lon="4.22621">
        <ele>643.457398</ele>
        <time>2021-03-27T19:41:10.289Z</time>
      </trkpt>
      <trkpt lat="44.54778" lon="4.22513">
        <ele>647.643024</ele>
        <time>2021-03-27T19:41:41.486Z</time>
      </trkpt>
      <trkpt lat="44.54765" lon="4.22492">
        <ele>647.983977</ele>
        <time>2021-03-27T19:41:47.617Z</time>
      </trkpt>
      <trkpt lat="44.5476" lon="4.22489">
        <ele>648.083695</ele>
        <time>2021-03-27T19:41:50.508Z</time>
      </trkpt>
      <trkpt lat="44.54755" lon="4.2249">
        <ele>648.159082</ele>
        <time>2021-03-27T19:41:51.188Z</time>
      </trkpt>
      <trkpt lat="44.54739" lon="4.22501">
        <ele>648.461118</ele>
        <time>2021-03-27T19:41:55.974Z</time>
      </trkpt>
      <trkpt lat="44.54724" lon="4.22519">
        <ele>648.792138</ele>
        <time>2021-03-27T19:42:01.060Z</time>
      </trkpt>
      <trkpt lat="44.54701" lon="4.22531">
        <ele>649.21197</ele>
        <time>2021-03-27T19:42:07.232Z</time>
      </trkpt>
      <trkpt lat="44.54667" lon="4.22531">
        <ele>649.782108</ele>
        <time>2021-03-27T19:42:15.235Z</time>
      </trkpt>
      <trkpt lat="44.54629" lon="4.22511">
        <ele>650.750318</ele>
        <time>2021-03-27T19:42:25.669Z</time>
      </trkpt>
      <trkpt lat="44.546" lon="4.22471">
        <ele>652.610909</ele>
        <time>2021-03-27T19:42:36.158Z</time>
      </trkpt>
      <trkpt lat="44.54587" lon="4.22443">
        <ele>653.698612</ele>
        <time>2021-03-27T19:42:44.393Z</time>
      </trkpt>
      <trkpt lat="44.5456" lon="4.2231">
        <ele>658.193234</ele>
        <time>2021-03-27T19:43:33.692Z</time>
      </trkpt>
      <trkpt lat="44.54493" lon="4.22216">
        <ele>666.244659</ele>
        <time>2021-03-27T19:44:36.036Z</time>
      </trkpt>
      <trkpt lat="44.54462" lon="4.2216">
        <ele>670.687708</ele>
        <time>2021-03-27T19:45:10.361Z</time>
      </trkpt>
      <trkpt lat="44.54449" lon="4.22094">
        <ele>674.873273</ele>
        <time>2021-03-27T19:45:42.350Z</time>
      </trkpt>
      <trkpt lat="44.54427" lon="4.22024">
        <ele>679.276975</ele>
        <time>2021-03-27T19:46:16.679Z</time>
      </trkpt>
      <trkpt lat="44.54414" lon="4.22012">
        <ele>680.563142</ele>
        <time>2021-03-27T19:46:26.909Z</time>
      </trkpt>
      <trkpt lat="44.54406" lon="4.22013">
        <ele>681.223169</ele>
        <time>2021-03-27T19:46:30.719Z</time>
      </trkpt>
      <trkpt lat="44.54362" lon="4.22047">
        <ele>685.247213</ele>
        <time>2021-03-27T19:46:59.444Z</time>
      </trkpt>
      <trkpt lat="44.5436" lon="4.22049">
        <ele>685.441307</ele>
        <time>2021-03-27T19:47:01.415Z</time>
      </trkpt>
      <trkpt lat="44.54345" lon="4.22046">
        <ele>686.641926</ele>
        <time>2021-03-27T19:47:08.785Z</time>
      </trkpt>
      <trkpt lat="44.54339" lon="4.22039">
        <ele>687.269208</ele>
        <time>2021-03-27T19:47:11.305Z</time>
      </trkpt>
      <trkpt lat="44.54332" lon="4.22026">
        <ele>688.189484</ele>
        <time>2021-03-27T19:47:19.143Z</time>
      </trkpt>
      <trkpt lat="44.54323" lon="4.21997">
        <ele>690.214594</ele>
        <time>2021-03-27T19:47:34.390Z</time>
      </trkpt>
      <trkpt lat="44.54323" lon="4.21982">
        <ele>691.307683</ele>
        <time>2021-03-27T19:47:40.803Z</time>
      </trkpt>
      <trkpt lat="44.54332" lon="4.21905">
        <ele>696.67486</ele>
        <time>2021-03-27T19:48:16.447Z</time>
      </trkpt>
      <trkpt lat="44.54326" lon="4.21852">
        <ele>700.366232</ele>
        <time>2021-03-27T19:48:44.565Z</time>
      </trkpt>
      <trkpt lat="44.54315" lon="4.21813">
        <ele>703.323691</ele>
        <time>2021-03-27T19:49:04.312Z</time>
      </trkpt>
      <trkpt lat="44.54315" lon="4.21808">
        <ele>703.640215</ele>
        <time>2021-03-27T19:49:08.753Z</time>
      </trkpt>
      <trkpt lat="44.54317" lon="4.21807">
        <ele>703.863552</ele>
        <time>2021-03-27T19:49:11.950Z</time>
      </trkpt>
      <trkpt lat="44.54394" lon="4.21873">
        <ele>713.998761</ele>
        <time>2021-03-27T19:50:16.859Z</time>
      </trkpt>
      <trkpt lat="44.54409" lon="4.21878">
        <ele>715.744962</ele>
        <time>2021-03-27T19:50:30.346Z</time>
      </trkpt>
      <trkpt lat="44.54429" lon="4.21886">
        <ele>718.181193</ele>
        <time>2021-03-27T19:50:47.819Z</time>
      </trkpt>
      <trkpt lat="44.54462" lon="4.2191">
        <ele>722.586634</ele>
        <time>2021-03-27T19:51:19.334Z</time>
      </trkpt>
      <trkpt lat="44.54472" lon="4.21906">
        <ele>723.804752</ele>
        <time>2021-03-27T19:51:26.621Z</time>
      </trkpt>
      <trkpt lat="44.54472" lon="4.21885">
        <ele>725.573023</ele>
        <time>2021-03-27T19:51:38.925Z</time>
      </trkpt>
      <trkpt lat="44.5445" lon="4.2184">
        <ele>729.713868</ele>
        <time>2021-03-27T19:52:09.098Z</time>
      </trkpt>
      <trkpt lat="44.54442" lon="4.21807">
        <ele>732.183164</ele>
        <time>2021-03-27T19:52:30.574Z</time>
      </trkpt>
      <trkpt lat="44.54437" lon="4.21785">
        <ele>733.837041</ele>
        <time>2021-03-27T19:52:44.355Z</time>
      </trkpt>
      <trkpt lat="44.54424" lon="4.2172">
        <ele>738.660869</ele>
        <time>2021-03-27T19:53:16.542Z</time>
      </trkpt>
      <trkpt lat="44.54424" lon="4.2171">
        <ele>739.367093</ele>
        <time>2021-03-27T19:53:21.633Z</time>
      </trkpt>
      <trkpt lat="44.54425" lon="4.21702">
        <ele>739.912506</ele>
        <time>2021-03-27T19:53:24.892Z</time>
      </trkpt>
      <trkpt lat="44.5443" lon="4.21697">
        <ele>740.556265</ele>
        <time>2021-03-27T19:53:28.320Z</time>
      </trkpt>
      <trkpt lat="44.54432" lon="4.21697">
        <ele>740.796566</ele>
        <time>2021-03-27T19:53:30.394Z</time>
      </trkpt>
      <trkpt lat="44.54435" lon="4.217">
        <ele>741.110851</ele>
        <time>2021-03-27T19:53:33.346Z</time>
      </trkpt>
      <trkpt lat="44.54442" lon="4.21728">
        <ele>743.240821</ele>
        <time>2021-03-27T19:53:46.426Z</time>
      </trkpt>
      <trkpt lat="44.54456" lon="4.21737">
        <ele>744.764686</ele>
        <time>2021-03-27T19:53:56.433Z</time>
      </trkpt>
      <trkpt lat="44.54475" lon="4.21741">
        <ele>746.100231</ele>
        <time>2021-03-27T19:54:08.081Z</time>
      </trkpt>
      <trkpt lat="44.5449" lon="4.21745">
        <ele>747.010627</ele>
        <time>2021-03-27T19:54:17.409Z</time>
      </trkpt>
      <trkpt lat="44.54496" lon="4.21743">
        <ele>747.351053</ele>
        <time>2021-03-27T19:54:19.612Z</time>
      </trkpt>
      <trkpt lat="44.54498" lon="4.21739">
        <ele>747.548709</ele>
        <time>2021-03-27T19:54:21.822Z</time>
      </trkpt>
      <trkpt lat="44.54503" lon="4.21746">
        <ele>747.901885</ele>
        <time>2021-03-27T19:54:24.618Z</time>
      </trkpt>
      <trkpt lat="44.54552" lon="4.21859">
        <ele>753.333935</ele>
        <time>2021-03-27T19:55:20.107Z</time>
      </trkpt>
      <trkpt lat="44.54563" lon="4.21869">
        <ele>754.100263</ele>
        <time>2021-03-27T19:55:27.252Z</time>
      </trkpt>
      <trkpt lat="44.5455" lon="4.21788">
        <ele>756.482767</ele>
        <time>2021-03-27T19:56:01.142Z</time>
      </trkpt>
      <trkpt lat="44.54548" lon="4.21741">
        <ele>757.35202</ele>
        <time>2021-03-27T19:56:16.743Z</time>
      </trkpt>
      <trkpt lat="44.5454" lon="4.21712">
        <ele>757.94659</ele>
        <time>2021-03-27T19:56:25.338Z</time>
      </trkpt>
      <trkpt lat="44.54536" lon="4.21697">
        <ele>758.235733</ele>
        <time>2021-03-27T19:56:31.417Z</time>
      </trkpt>
      <trkpt lat="44.54538" lon="4.21695">
        <ele>758.326482</ele>
        <time>2021-03-27T19:56:34.432Z</time>
      </trkpt>
      <trkpt lat="44.54542" lon="4.21687">
        <ele>758.499575</ele>
        <time>2021-03-27T19:56:40.560Z</time>
      </trkpt>
      <trkpt lat="44.54538" lon="4.21682">
        <ele>758.63443</ele>
        <time>2021-03-27T19:56:42.047Z</time>
      </trkpt>
      <trkpt lat="44.54522" lon="4.21678">
        <ele>759.045035</ele>
        <time>2021-03-27T19:56:48.935Z</time>
      </trkpt>
      <trkpt lat="44.5452" lon="4.21662">
        <ele>759.351813</ele>
        <time>2021-03-27T19:56:55.683Z</time>
      </trkpt>
      <trkpt lat="44.54528" lon="4.21635">
        <ele>759.898249</ele>
        <time>2021-03-27T19:57:02.116Z</time>
      </trkpt>
      <trkpt lat="44.54527" lon="4.21629">
        <ele>760.018207</ele>
        <time>2021-03-27T19:57:04.098Z</time>
      </trkpt>
      <trkpt lat="44.5453" lon="4.21634">
        <ele>760.130233</ele>
        <time>2021-03-27T19:57:05.940Z</time>
      </trkpt>
      <trkpt lat="44.54532" lon="4.21633">
        <ele>760.198661</ele>
        <time>2021-03-27T19:57:07.062Z</time>
      </trkpt>
      <trkpt lat="44.54538" lon="4.21637">
        <ele>760.269238</ele>
        <time>2021-03-27T19:57:09.813Z</time>
      </trkpt>
      <trkpt lat="44.54539" lon="4.21635">
        <ele>760.204411</ele>
        <time>2021-03-27T19:57:10.521Z</time>
      </trkpt>
      <trkpt lat="44.54536" lon="4.21635">
        <ele>760.105965</ele>
        <time>2021-03-27T19:57:11.596Z</time>
      </trkpt>
      <trkpt lat="44.54532" lon="4.2163">
        <ele>759.883241</ele>
        <time>2021-03-27T19:57:14.027Z</time>
      </trkpt>
      <trkpt lat="44.54527" lon="4.21637">
        <ele>759.589036</ele>
        <time>2021-03-27T19:57:17.237Z</time>
      </trkpt>
      <trkpt lat="44.54516" lon="4.21664">
        <ele>758.722711</ele>
        <time>2021-03-27T19:57:26.699Z</time>
      </trkpt>
      <trkpt lat="44.54518" lon="4.21681">
        <ele>758.238413</ele>
        <time>2021-03-27T19:57:31.995Z</time>
      </trkpt>
      <trkpt lat="44.54517" lon="4.2168">
        <ele>758.192466</ele>
        <time>2021-03-27T19:57:32.496Z</time>
      </trkpt>
      <trkpt lat="44.54516" lon="4.2168">
        <ele>758.143854</ele>
        <time>2021-03-27T19:57:33.026Z</time>
      </trkpt>
      <trkpt lat="44.54519" lon="4.2168">
        <ele>758.052923</ele>
        <time>2021-03-27T19:57:34.017Z</time>
      </trkpt>
      <trkpt lat="44.54518" lon="4.21679">
        <ele>758.007242</ele>
        <time>2021-03-27T19:57:34.516Z</time>
      </trkpt>
      <trkpt lat="44.54517" lon="4.2168">
        <ele>757.963296</ele>
        <time>2021-03-27T19:57:34.995Z</time>
      </trkpt>
      <trkpt lat="44.54518" lon="4.21677">
        <ele>757.896056</ele>
        <time>2021-03-27T19:57:35.731Z</time>
      </trkpt>
      <trkpt lat="44.54519" lon="4.21678">
        <ele>757.850892</ele>
        <time>2021-03-27T19:57:36.224Z</time>
      </trkpt>
      <trkpt lat="44.54518" lon="4.21679">
        <ele>757.801037</ele>
        <time>2021-03-27T19:57:36.767Z</time>
      </trkpt>
      <trkpt lat="44.54517" lon="4.21678">
        <ele>757.739553</ele>
        <time>2021-03-27T19:57:37.439Z</time>
      </trkpt>
      <trkpt lat="44.54516" lon="4.21681">
        <ele>757.641608</ele>
        <time>2021-03-27T19:57:38.510Z</time>
      </trkpt>
      <trkpt lat="44.54521" lon="4.2168">
        <ele>757.444459</ele>
        <time>2021-03-27T19:57:40.658Z</time>
      </trkpt>
      <trkpt lat="44.54517" lon="4.2168">
        <ele>757.283377</ele>
        <time>2021-03-27T19:57:42.417Z</time>
      </trkpt>
      <trkpt lat="44.54519" lon="4.21683">
        <ele>757.175843</ele>
        <time>2021-03-27T19:57:43.592Z</time>
      </trkpt>
      <trkpt lat="44.54518" lon="4.21678">
        <ele>757.051253</ele>
        <time>2021-03-27T19:57:44.956Z</time>
      </trkpt>
      <trkpt lat="44.54524" lon="4.21678">
        <ele>756.842838</ele>
        <time>2021-03-27T19:57:47.229Z</time>
      </trkpt>
      <trkpt lat="44.54537" lon="4.21686">
        <ele>756.295312</ele>
        <time>2021-03-27T19:57:53.203Z</time>
      </trkpt>
      <trkpt lat="44.5454" lon="4.21692">
        <ele>756.076561</ele>
        <time>2021-03-27T19:57:55.592Z</time>
      </trkpt>
      <trkpt lat="44.54539" lon="4.21702">
        <ele>755.804673</ele>
        <time>2021-03-27T19:57:58.570Z</time>
      </trkpt>
      <trkpt lat="44.54534" lon="4.21709">
        <ele>755.536891</ele>
        <time>2021-03-27T19:58:01.498Z</time>
      </trkpt>
      <trkpt lat="44.54524" lon="4.21704">
        <ele>755.095283</ele>
        <time>2021-03-27T19:58:06.315Z</time>
      </trkpt>
      <trkpt lat="44.54512" lon="4.21706">
        <ele>754.623587</ele>
        <time>2021-03-27T19:58:11.458Z</time>
      </trkpt>
      <trkpt lat="44.54507" lon="4.21709">
        <ele>754.425368</ele>
        <time>2021-03-27T19:58:13.638Z</time>
      </trkpt>
      <trkpt lat="44.54493" lon="4.21693">
        <ele>753.734873</ele>
        <time>2021-03-27T19:58:21.196Z</time>
      </trkpt>
      <trkpt lat="44.54489" lon="4.21695">
        <ele>753.56412</ele>
        <time>2021-03-27T19:58:23.058Z</time>
      </trkpt>
      <trkpt lat="44.54489" lon="4.21702">
        <ele>753.370182</ele>
        <time>2021-03-27T19:58:25.185Z</time>
      </trkpt>
      <trkpt lat="44.54494" lon="4.21727">
        <ele>751.696338</ele>
        <time>2021-03-27T19:58:33.257Z</time>
      </trkpt>
      <trkpt lat="44.54494" lon="4.21738">
        <ele>750.984249</ele>
        <time>2021-03-27T19:58:36.423Z</time>
      </trkpt>
      <trkpt lat="44.54498" lon="4.21739">
        <ele>750.530718</ele>
        <time>2021-03-27T19:58:38.425Z</time>
      </trkpt>
      <trkpt lat="44.54496" lon="4.21743">
        <ele>750.198038</ele>
        <time>2021-03-27T19:58:38.861Z</time>
      </trkpt>
      <trkpt lat="44.5449" lon="4.21745">
        <ele>749.625056</ele>
        <time>2021-03-27T19:58:39.736Z</time>
      </trkpt>
      <trkpt lat="44.54475" lon="4.21741">
        <ele>748.092742</ele>
        <time>2021-03-27T19:58:41.792Z</time>
      </trkpt>
      <trkpt lat="44.54456" lon="4.21737">
        <ele>746.213257</ele>
        <time>2021-03-27T19:58:44.330Z</time>
      </trkpt>
      <trkpt lat="44.54442" lon="4.21728">
        <ele>744.737474</ele>
        <time>2021-03-27T19:58:46.278Z</time>
      </trkpt>
      <trkpt lat="44.54435" lon="4.217">
        <ele>742.674711</ele>
        <time>2021-03-27T19:58:49.003Z</time>
      </trkpt>
      <trkpt lat="44.54432" lon="4.21697">
        <ele>742.370342</ele>
        <time>2021-03-27T19:58:49.382Z</time>
      </trkpt>
      <trkpt lat="44.5443" lon="4.21697">
        <ele>742.137624</ele>
        <time>2021-03-27T19:58:49.690Z</time>
      </trkpt>
      <trkpt lat="44.54425" lon="4.21702">
        <ele>741.514178</ele>
        <time>2021-03-27T19:58:50.574Z</time>
      </trkpt>
      <trkpt lat="44.54424" lon="4.2171">
        <ele>740.985974</ele>
        <time>2021-03-27T19:58:51.282Z</time>
      </trkpt>
      <trkpt lat="44.5442" lon="4.2171">
        <ele>740.559289</ele>
        <time>2021-03-27T19:58:52.168Z</time>
      </trkpt>
      <trkpt lat="44.54401" lon="4.21709">
        <ele>738.756043</ele>
        <time>2021-03-27T19:58:56.201Z</time>
      </trkpt>
      <trkpt lat="44.54396" lon="4.21702">
        <ele>738.064552</ele>
        <time>2021-03-27T19:58:57.715Z</time>
      </trkpt>
      <trkpt lat="44.54385" lon="4.21676">
        <ele>735.94124</ele>
        <time>2021-03-27T19:59:02.449Z</time>
      </trkpt>
      <trkpt lat="44.54382" lon="4.21633">
        <ele>731.459217</ele>
        <time>2021-03-27T19:59:08.646Z</time>
      </trkpt>
      <trkpt lat="44.54375" lon="4.21627">
        <ele>730.214202</ele>
        <time>2021-03-27T19:59:10.569Z</time>
      </trkpt>
      <trkpt lat="44.54353" lon="4.21628">
        <ele>726.953467</ele>
        <time>2021-03-27T19:59:14.919Z</time>
      </trkpt>
      <trkpt lat="44.54308" lon="4.21599">
        <ele>719.5968</ele>
        <time>2021-03-27T19:59:25.152Z</time>
      </trkpt>
      <trkpt lat="44.54301" lon="4.21599">
        <ele>718.662857</ele>
        <time>2021-03-27T19:59:26.409Z</time>
      </trkpt>
      <trkpt lat="44.54283" lon="4.21594">
        <ele>715.838352</ele>
        <time>2021-03-27T19:59:30.218Z</time>
      </trkpt>
      <trkpt lat="44.54269" lon="4.21593">
        <ele>713.890193</ele>
        <time>2021-03-27T19:59:33.039Z</time>
      </trkpt>
      <trkpt lat="44.54264" lon="4.21587">
        <ele>712.91168</ele>
        <time>2021-03-27T19:59:34.350Z</time>
      </trkpt>
      <trkpt lat="44.54253" lon="4.21585">
        <ele>711.332858</ele>
        <time>2021-03-27T19:59:36.434Z</time>
      </trkpt>
      <trkpt lat="44.54226" lon="4.21589">
        <ele>707.049657</ele>
        <time>2021-03-27T19:59:42.070Z</time>
      </trkpt>
      <trkpt lat="44.54162" lon="4.21553">
        <ele>695.987034</ele>
        <time>2021-03-27T19:59:55.772Z</time>
      </trkpt>
      <trkpt lat="44.54088" lon="4.21558">
        <ele>684.12418</ele>
        <time>2021-03-27T20:00:10.537Z</time>
      </trkpt>
      <trkpt lat="44.54072" lon="4.21551">
        <ele>681.516699</ele>
        <time>2021-03-27T20:00:13.886Z</time>
      </trkpt>
      <trkpt lat="44.53969" lon="4.21469">
        <ele>666.340113</ele>
        <time>2021-03-27T20:00:38.414Z</time>
      </trkpt>
      <trkpt lat="44.5391" lon="4.21472">
        <ele>659.001277</ele>
        <time>2021-03-27T20:00:50.657Z</time>
      </trkpt>
      <trkpt lat="44.53844" lon="4.21443">
        <ele>651.519889</ele>
        <time>2021-03-27T20:01:05.501Z</time>
      </trkpt>
      <trkpt lat="44.53817" lon="4.21416">
        <ele>648.108957</ele>
        <time>2021-03-27T20:01:12.515Z</time>
      </trkpt>
      <trkpt lat="44.53788" lon="4.21373">
        <ele>643.686665</ele>
        <time>2021-03-27T20:01:21.639Z</time>
      </trkpt>
      <trkpt lat="44.5374" lon="4.21322">
        <ele>637.125798</ele>
        <time>2021-03-27T20:01:34.628Z</time>
      </trkpt>
      <trkpt lat="44.53716" lon="4.21279">
        <ele>632.544412</ele>
        <time>2021-03-27T20:01:42.800Z</time>
      </trkpt>
      <trkpt lat="44.5368" lon="4.21186">
        <ele>623.483483</ele>
        <time>2021-03-27T20:01:58.695Z</time>
      </trkpt>
      <trkpt lat="44.53669" lon="4.21179">
        <ele>622.093043</ele>
        <time>2021-03-27T20:02:01.096Z</time>
      </trkpt>
      <trkpt lat="44.53653" lon="4.21203">
        <ele>619.283492</ele>
        <time>2021-03-27T20:02:05.960Z</time>
      </trkpt>
      <trkpt lat="44.53592" lon="4.21345">
        <ele>604.076419</ele>
        <time>2021-03-27T20:02:30.194Z</time>
      </trkpt>
      <trkpt lat="44.53588" lon="4.21395">
        <ele>599.421013</ele>
        <time>2021-03-27T20:02:37.584Z</time>
      </trkpt>
      <trkpt lat="44.53608" lon="4.21457">
        <ele>593.337866</ele>
        <time>2021-03-27T20:02:47.825Z</time>
      </trkpt>
      <trkpt lat="44.53658" lon="4.2152">
        <ele>586.887497</ele>
        <time>2021-03-27T20:03:02.050Z</time>
      </trkpt>
      <trkpt lat="44.53669" lon="4.21559">
        <ele>584.02706</ele>
        <time>2021-03-27T20:03:08.498Z</time>
      </trkpt>
      <trkpt lat="44.53722" lon="4.21662">
        <ele>575.399578</ele>
        <time>2021-03-27T20:03:28.762Z</time>
      </trkpt>
      <trkpt lat="44.53742" lon="4.21691">
        <ele>572.838113</ele>
        <time>2021-03-27T20:03:34.978Z</time>
      </trkpt>
      <trkpt lat="44.53744" lon="4.21705">
        <ele>571.937437</ele>
        <time>2021-03-27T20:03:37.338Z</time>
      </trkpt>
      <trkpt lat="44.53733" lon="4.21732">
        <ele>570.03129</ele>
        <time>2021-03-27T20:03:41.966Z</time>
      </trkpt>
      <trkpt lat="44.53689" lon="4.21772">
        <ele>565.360359</ele>
        <time>2021-03-27T20:03:53.777Z</time>
      </trkpt>
      <trkpt lat="44.53669" lon="4.21784">
        <ele>563.466531</ele>
        <time>2021-03-27T20:03:58.377Z</time>
      </trkpt>
      <trkpt lat="44.53648" lon="4.2178">
        <ele>561.588328</ele>
        <time>2021-03-27T20:04:03.104Z</time>
      </trkpt>
      <trkpt lat="44.53642" lon="4.21777">
        <ele>561.026283</ele>
        <time>2021-03-27T20:04:04.404Z</time>
      </trkpt>
      <trkpt lat="44.53637" lon="4.21784">
        <ele>560.395422</ele>
        <time>2021-03-27T20:04:05.367Z</time>
      </trkpt>
      <trkpt lat="44.53617" lon="4.2185">
        <ele>556.248989</ele>
        <time>2021-03-27T20:04:12.005Z</time>
      </trkpt>
      <trkpt lat="44.53596" lon="4.21893">
        <ele>553.186244</ele>
        <time>2021-03-27T20:04:16.844Z</time>
      </trkpt>
      <trkpt lat="44.53595" lon="4.21934">
        <ele>550.815039</ele>
        <time>2021-03-27T20:04:20.692Z</time>
      </trkpt>
      <trkpt lat="44.53595" lon="4.21939">
        <ele>550.506479</ele>
        <time>2021-03-27T20:04:21.142Z</time>
      </trkpt>
      <trkpt lat="44.53595" lon="4.21947">
        <ele>550.058121</ele>
        <time>2021-03-27T20:04:21.850Z</time>
      </trkpt>
      <trkpt lat="44.53571" lon="4.22064">
        <ele>544.267245</ele>
        <time>2021-03-27T20:04:33.810Z</time>
      </trkpt>
      <trkpt lat="44.53564" lon="4.22082">
        <ele>543.579758</ele>
        <time>2021-03-27T20:04:35.744Z</time>
      </trkpt>
      <trkpt lat="44.53559" lon="4.22084">
        <ele>543.324085</ele>
        <time>2021-03-27T20:04:36.819Z</time>
      </trkpt>
      <trkpt lat="44.53537" lon="4.221">
        <ele>542.075256</ele>
        <time>2021-03-27T20:04:43.357Z</time>
      </trkpt>
      <trkpt lat="44.53479" lon="4.22122">
        <ele>539.125469</ele>
        <time>2021-03-27T20:04:57.980Z</time>
      </trkpt>
      <trkpt lat="44.53442" lon="4.22116">
        <ele>537.402325</ele>
        <time>2021-03-27T20:05:07.365Z</time>
      </trkpt>
      <trkpt lat="44.53428" lon="4.22119">
        <ele>537.169462</ele>
        <time>2021-03-27T20:05:11.173Z</time>
      </trkpt>
      <trkpt lat="44.53416" lon="4.22123">
        <ele>536.974453</ele>
        <time>2021-03-27T20:05:14.112Z</time>
      </trkpt>
      <trkpt lat="44.53402" lon="4.22115">
        <ele>536.721698</ele>
        <time>2021-03-27T20:05:18.378Z</time>
      </trkpt>
      <trkpt lat="44.53313" lon="4.22072">
        <ele>535.198318</ele>
        <time>2021-03-27T20:05:45.213Z</time>
      </trkpt>
      <trkpt lat="44.53298" lon="4.22065">
        <ele>534.9523</ele>
        <time>2021-03-27T20:05:49.636Z</time>
      </trkpt>
      <trkpt lat="44.53284" lon="4.22063">
        <ele>534.718759</ele>
        <time>2021-03-27T20:05:54.085Z</time>
      </trkpt>
      <trkpt lat="44.53249" lon="4.22046">
        <ele>534.54421</ele>
        <time>2021-03-27T20:06:05.555Z</time>
      </trkpt>
      <trkpt lat="44.53169" lon="4.21992">
        <ele>534.610782</ele>
        <time>2021-03-27T20:06:34.861Z</time>
      </trkpt>
      <trkpt lat="44.53157" lon="4.21976">
        <ele>534.623014</ele>
        <time>2021-03-27T20:06:40.535Z</time>
      </trkpt>
      <trkpt lat="44.53143" lon="4.21957">
        <ele>534.637758</ele>
        <time>2021-03-27T20:06:47.193Z</time>
      </trkpt>
      <trkpt lat="44.53126" lon="4.21906">
        <ele>534.665031</ele>
        <time>2021-03-27T20:07:00.299Z</time>
      </trkpt>
      <trkpt lat="44.53081" lon="4.21853">
        <ele>534.695325</ele>
        <time>2021-03-27T20:07:19.181Z</time>
      </trkpt>
      <trkpt lat="44.53038" lon="4.21791">
        <ele>534.72694</ele>
        <time>2021-03-27T20:07:38.755Z</time>
      </trkpt>
      <trkpt lat="44.5301" lon="4.21762">
        <ele>534.74474</ele>
        <time>2021-03-27T20:07:49.700Z</time>
      </trkpt>
      <trkpt lat="44.52993" lon="4.21753">
        <ele>534.74324</ele>
        <time>2021-03-27T20:07:55.573Z</time>
      </trkpt>
      <trkpt lat="44.52997" lon="4.2171">
        <ele>534.677042</ele>
        <time>2021-03-27T20:08:05.477Z</time>
      </trkpt>
      <trkpt lat="44.5299" lon="4.21679">
        <ele>534.626006</ele>
        <time>2021-03-27T20:08:13.731Z</time>
      </trkpt>
      <trkpt lat="44.52932" lon="4.21612">
        <ele>534.463747</ele>
        <time>2021-03-27T20:08:37.110Z</time>
      </trkpt>
      <trkpt lat="44.52907" lon="4.21569">
        <ele>534.377664</ele>
        <time>2021-03-27T20:08:49.084Z</time>
      </trkpt>
      <trkpt lat="44.52896" lon="4.21561">
        <ele>534.269812</ele>
        <time>2021-03-27T20:08:52.717Z</time>
      </trkpt>
      <trkpt lat="44.52879" lon="4.21551">
        <ele>533.94852</ele>
        <time>2021-03-27T20:08:58.281Z</time>
      </trkpt>
      <trkpt lat="44.52859" lon="4.21545">
        <ele>533.577217</ele>
        <time>2021-03-27T20:09:04.050Z</time>
      </trkpt>
      <trkpt lat="44.52821" lon="4.21537">
        <ele>532.886327</ele>
        <time>2021-03-27T20:09:14.990Z</time>
      </trkpt>
      <trkpt lat="44.52809" lon="4.2154">
        <ele>532.671175</ele>
        <time>2021-03-27T20:09:18.524Z</time>
      </trkpt>
      <trkpt lat="44.52777" lon="4.21565">
        <ele>532.009209</ele>
        <time>2021-03-27T20:09:28.694Z</time>
      </trkpt>
      <trkpt lat="44.52696" lon="4.21567">
        <ele>529.630371</ele>
        <time>2021-03-27T20:09:49.959Z</time>
      </trkpt>
      <trkpt lat="44.52651" lon="4.21613">
        <ele>527.027164</ele>
        <time>2021-03-27T20:10:03.664Z</time>
      </trkpt>
      <trkpt lat="44.5259" lon="4.21648">
        <ele>523.949233</ele>
        <time>2021-03-27T20:10:19.416Z</time>
      </trkpt>
      <trkpt lat="44.52569" lon="4.21665">
        <ele>522.822176</ele>
        <time>2021-03-27T20:10:25.043Z</time>
      </trkpt>
      <trkpt lat="44.5254" lon="4.21683">
        <ele>520.523644</ele>
        <time>2021-03-27T20:10:32.286Z</time>
      </trkpt>
      <trkpt lat="44.52533" lon="4.217">
        <ele>519.4127</ele>
        <time>2021-03-27T20:10:35.721Z</time>
      </trkpt>
      <trkpt lat="44.52532" lon="4.21723">
        <ele>518.19607</ele>
        <time>2021-03-27T20:10:39.372Z</time>
      </trkpt>
      <trkpt lat="44.5254" lon="4.21736">
        <ele>517.236696</ele>
        <time>2021-03-27T20:10:42.282Z</time>
      </trkpt>
      <trkpt lat="44.52605" lon="4.2179">
        <ele>511.595743</ele>
        <time>2021-03-27T20:10:58.816Z</time>
      </trkpt>
      <trkpt lat="44.52624" lon="4.21791">
        <ele>510.123946</ele>
        <time>2021-03-27T20:11:03.045Z</time>
      </trkpt>
      <trkpt lat="44.52633" lon="4.21861">
        <ele>506.080142</ele>
        <time>2021-03-27T20:11:14.424Z</time>
      </trkpt>
      <trkpt lat="44.52619" lon="4.21926">
        <ele>502.198687</ele>
        <time>2021-03-27T20:11:25.372Z</time>
      </trkpt>
      <trkpt lat="44.52617" lon="4.21941">
        <ele>501.323854</ele>
        <time>2021-03-27T20:11:27.712Z</time>
      </trkpt>
      <trkpt lat="44.52608" lon="4.21936">
        <ele>500.583055</ele>
        <time>2021-03-27T20:11:28.971Z</time>
      </trkpt>
      <trkpt lat="44.52578" lon="4.21904">
        <ele>497.507875</ele>
        <time>2021-03-27T20:11:33.945Z</time>
      </trkpt>
      <trkpt lat="44.52484" lon="4.21883">
        <ele>490.167068</ele>
        <time>2021-03-27T20:11:46.227Z</time>
      </trkpt>
      <trkpt lat="44.52456" lon="4.2189">
        <ele>488.010841</ele>
        <time>2021-03-27T20:11:49.986Z</time>
      </trkpt>
      <trkpt lat="44.52446" lon="4.21895">
        <ele>487.186923</ele>
        <time>2021-03-27T20:11:51.499Z</time>
      </trkpt>
      <trkpt lat="44.52441" lon="4.21897">
        <ele>486.789861</ele>
        <time>2021-03-27T20:11:52.191Z</time>
      </trkpt>
      <trkpt lat="44.52405" lon="4.21898">
        <ele>484.06147</ele>
        <time>2021-03-27T20:11:57.109Z</time>
      </trkpt>
      <trkpt lat="44.52397" lon="4.21901">
        <ele>483.457567</ele>
        <time>2021-03-27T20:11:58.159Z</time>
      </trkpt>
      <trkpt lat="44.52389" lon="4.21904">
        <ele>482.801001</ele>
        <time>2021-03-27T20:11:59.279Z</time>
      </trkpt>
      <trkpt lat="44.52364" lon="4.21909">
        <ele>480.897152</ele>
        <time>2021-03-27T20:12:02.757Z</time>
      </trkpt>
      <trkpt lat="44.52358" lon="4.21908">
        <ele>480.611426</ele>
        <time>2021-03-27T20:12:03.404Z</time>
      </trkpt>
      <trkpt lat="44.52361" lon="4.21915">
        <ele>480.320792</ele>
        <time>2021-03-27T20:12:04.605Z</time>
      </trkpt>
      <trkpt lat="44.52412" lon="4.21936">
        <ele>477.409717</ele>
        <time>2021-03-27T20:12:16.612Z</time>
      </trkpt>
      <trkpt lat="44.52436" lon="4.21975">
        <ele>475.398511</ele>
        <time>2021-03-27T20:12:25.325Z</time>
      </trkpt>
      <trkpt lat="44.52445" lon="4.2199">
        <ele>474.638252</ele>
        <time>2021-03-27T20:12:28.494Z</time>
      </trkpt>
      <trkpt lat="44.52437" lon="4.22006">
        <ele>473.912221</ele>
        <time>2021-03-27T20:12:30.254Z</time>
      </trkpt>
      <trkpt lat="44.52428" lon="4.22039">
        <ele>472.527377</ele>
        <time>2021-03-27T20:12:33.884Z</time>
      </trkpt>
      <trkpt lat="44.52422" lon="4.22102">
        <ele>470.550231</ele>
        <time>2021-03-27T20:12:40.566Z</time>
      </trkpt>
      <trkpt lat="44.5242" lon="4.22113">
        <ele>470.305469</ele>
        <time>2021-03-27T20:12:41.739Z</time>
      </trkpt>
      <trkpt lat="44.52427" lon="4.22115">
        <ele>470.112901</ele>
        <time>2021-03-27T20:12:42.902Z</time>
      </trkpt>
      <trkpt lat="44.5243" lon="4.22111">
        <ele>469.989676</ele>
        <time>2021-03-27T20:12:43.726Z</time>
      </trkpt>
      <trkpt lat="44.52434" lon="4.22051">
        <ele>468.750238</ele>
        <time>2021-03-27T20:12:50.339Z</time>
      </trkpt>
      <trkpt lat="44.52439" lon="4.22041">
        <ele>468.501525</ele>
        <time>2021-03-27T20:12:51.579Z</time>
      </trkpt>
      <trkpt lat="44.52446" lon="4.22041">
        <ele>468.293164</ele>
        <time>2021-03-27T20:12:52.617Z</time>
      </trkpt>
      <trkpt lat="44.52472" lon="4.22099">
        <ele>466.868626</ele>
        <time>2021-03-27T20:13:00.666Z</time>
      </trkpt>
      <trkpt lat="44.52524" lon="4.2215">
        <ele>464.908739</ele>
        <time>2021-03-27T20:13:10.604Z</time>
      </trkpt>
      <trkpt lat="44.52591" lon="4.22198">
        <ele>462.373992</ele>
        <time>2021-03-27T20:13:22.148Z</time>
      </trkpt>
      <trkpt lat="44.52607" lon="4.22225">
        <ele>461.533673</ele>
        <time>2021-03-27T20:13:25.804Z</time>
      </trkpt>
      <trkpt lat="44.52629" lon="4.22315">
        <ele>459.229988</ele>
        <time>2021-03-27T20:13:35.812Z</time>
      </trkpt>
      <trkpt lat="44.52653" lon="4.22369">
        <ele>457.675456</ele>
        <time>2021-03-27T20:13:42.581Z</time>
      </trkpt>
      <trkpt lat="44.52664" lon="4.22402">
        <ele>456.77415</ele>
        <time>2021-03-27T20:13:46.472Z</time>
      </trkpt>
      <trkpt lat="44.52672" lon="4.22428">
        <ele>456.076193</ele>
        <time>2021-03-27T20:13:49.558Z</time>
      </trkpt>
      <trkpt lat="44.5268" lon="4.22482">
        <ele>454.726051</ele>
        <time>2021-03-27T20:13:55.588Z</time>
      </trkpt>
      <trkpt lat="44.52704" lon="4.2254">
        <ele>453.667313</ele>
        <time>2021-03-27T20:14:03.016Z</time>
      </trkpt>
      <trkpt lat="44.52701" lon="4.22553">
        <ele>453.663244</ele>
        <time>2021-03-27T20:14:04.319Z</time>
      </trkpt>
      <trkpt lat="44.52678" lon="4.22592">
        <ele>453.646949</ele>
        <time>2021-03-27T20:14:10.374Z</time>
      </trkpt>
      <trkpt lat="44.52666" lon="4.22679">
        <ele>453.618112</ele>
        <time>2021-03-27T20:14:24.908Z</time>
      </trkpt>
      <trkpt lat="44.52664" lon="4.22686">
        <ele>453.615697</ele>
        <time>2021-03-27T20:14:25.703Z</time>
      </trkpt>
      <trkpt lat="44.5267" lon="4.22728">
        <ele>453.602087</ele>
        <time>2021-03-27T20:14:35.474Z</time>
      </trkpt>
      <trkpt lat="44.52686" lon="4.22801">
        <ele>454.272513</ele>
        <time>2021-03-27T20:14:55.879Z</time>
      </trkpt>
      <trkpt lat="44.52722" lon="4.22883">
        <ele>455.572366</ele>
        <time>2021-03-27T20:15:21.310Z</time>
      </trkpt>
      <trkpt lat="44.52752" lon="4.22964">
        <ele>456.796026</ele>
        <time>2021-03-27T20:15:39.354Z</time>
      </trkpt>
      <trkpt lat="44.52755" lon="4.22968">
        <ele>456.880773</ele>
        <time>2021-03-27T20:15:43.664Z</time>
      </trkpt>
      <trkpt lat="44.52758" lon="4.22971">
        <ele>456.953339</ele>
        <time>2021-03-27T20:15:44.471Z</time>
      </trkpt>
      <trkpt lat="44.5276" lon="4.22979">
        <ele>456.656958</ele>
        <time>2021-03-27T20:15:45.919Z</time>
      </trkpt>
      <trkpt lat="44.52776" lon="4.2303">
        <ele>454.008408</ele>
        <time>2021-03-27T20:15:58.096Z</time>
      </trkpt>
      <trkpt lat="44.52774" lon="4.23095">
        <ele>450.90635</ele>
        <time>2021-03-27T20:16:08.965Z</time>
      </trkpt>
      <trkpt lat="44.52759" lon="4.23136">
        <ele>448.728935</ele>
        <time>2021-03-27T20:16:16.074Z</time>
      </trkpt>
      <trkpt lat="44.52724" lon="4.23208">
        <ele>444.264925</ele>
        <time>2021-03-27T20:16:29.094Z</time>
      </trkpt>
      <trkpt lat="44.52722" lon="4.23234">
        <ele>441.921768</ele>
        <time>2021-03-27T20:16:33.316Z</time>
      </trkpt>
      <trkpt lat="44.52723" lon="4.2324">
        <ele>441.373151</ele>
        <time>2021-03-27T20:16:34.184Z</time>
      </trkpt>
      <trkpt lat="44.52724" lon="4.23247">
        <ele>440.798878</ele>
        <time>2021-03-27T20:16:35.099Z</time>
      </trkpt>
      <trkpt lat="44.5272" lon="4.23335">
        <ele>433.089794</ele>
        <time>2021-03-27T20:16:48.346Z</time>
      </trkpt>
      <trkpt lat="44.52711" lon="4.23397">
        <ele>427.516826</ele>
        <time>2021-03-27T20:16:57.486Z</time>
      </trkpt>
      <trkpt lat="44.52669" lon="4.23482">
        <ele>420.161254</ele>
        <time>2021-03-27T20:17:13.342Z</time>
      </trkpt>
      <trkpt lat="44.52624" lon="4.23561">
        <ele>414.865641</ele>
        <time>2021-03-27T20:17:29.673Z</time>
      </trkpt>
      <trkpt lat="44.52604" lon="4.23619">
        <ele>411.458883</ele>
        <time>2021-03-27T20:17:40.600Z</time>
      </trkpt>
      <trkpt lat="44.52568" lon="4.23678">
        <ele>407.959624</ele>
        <time>2021-03-27T20:17:53.655Z</time>
      </trkpt>
      <trkpt lat="44.52554" lon="4.23741">
        <ele>405.460883</ele>
        <time>2021-03-27T20:18:04.937Z</time>
      </trkpt>
      <trkpt lat="44.5255" lon="4.23811">
        <ele>402.794188</ele>
        <time>2021-03-27T20:18:17.250Z</time>
      </trkpt>
      <trkpt lat="44.52545" lon="4.23829">
        <ele>402.054648</ele>
        <time>2021-03-27T20:18:20.493Z</time>
      </trkpt>
      <trkpt lat="44.52545" lon="4.23838">
        <ele>401.728487</ele>
        <time>2021-03-27T20:18:21.948Z</time>
      </trkpt>
      <trkpt lat="44.52545" lon="4.23853">
        <ele>401.159652</ele>
        <time>2021-03-27T20:18:24.658Z</time>
      </trkpt>
      <trkpt lat="44.52523" lon="4.2393">
        <ele>397.273239</ele>
        <time>2021-03-27T20:18:38.687Z</time>
      </trkpt>
      <trkpt lat="44.52516" lon="4.24036">
        <ele>391.762889</ele>
        <time>2021-03-27T20:18:55.977Z</time>
      </trkpt>
      <trkpt lat="44.52521" lon="4.24076">
        <ele>389.654581</ele>
        <time>2021-03-27T20:19:02.645Z</time>
      </trkpt>
      <trkpt lat="44.5251" lon="4.24319">
        <ele>372.269431</ele>
        <time>2021-03-27T20:19:40.214Z</time>
      </trkpt>
      <trkpt lat="44.52503" lon="4.24387">
        <ele>366.884619</ele>
        <time>2021-03-27T20:19:50.341Z</time>
      </trkpt>
      <trkpt lat="44.52444" lon="4.24656">
        <ele>340.52362</ele>
        <time>2021-03-27T20:20:31.372Z</time>
      </trkpt>
      <trkpt lat="44.52444" lon="4.24665">
        <ele>339.948025</ele>
        <time>2021-03-27T20:20:32.653Z</time>
      </trkpt>
      <trkpt lat="44.52449" lon="4.24666">
        <ele>339.470898</ele>
        <time>2021-03-27T20:20:33.634Z</time>
      </trkpt>
      <trkpt lat="44.5246" lon="4.24643">
        <ele>337.591688</ele>
        <time>2021-03-27T20:20:38.159Z</time>
      </trkpt>
      <trkpt lat="44.52467" lon="4.24644">
        <ele>336.91056</ele>
        <time>2021-03-27T20:20:39.758Z</time>
      </trkpt>
      <trkpt lat="44.52468" lon="4.24656">
        <ele>336.120321</ele>
        <time>2021-03-27T20:20:41.450Z</time>
      </trkpt>
      <trkpt lat="44.52453" lon="4.24693">
        <ele>333.269342</ele>
        <time>2021-03-27T20:20:48.467Z</time>
      </trkpt>
      <trkpt lat="44.52451" lon="4.24702">
        <ele>332.691665</ele>
        <time>2021-03-27T20:20:49.669Z</time>
      </trkpt>
      <trkpt lat="44.52458" lon="4.24696">
        <ele>331.952935</ele>
        <time>2021-03-27T20:20:50.763Z</time>
      </trkpt>
      <trkpt lat="44.52519" lon="4.24582">
        <ele>324.913086</ele>
        <time>2021-03-27T20:21:04.547Z</time>
      </trkpt>
      <trkpt lat="44.52529" lon="4.24572">
        <ele>324.594577</ele>
        <time>2021-03-27T20:21:06.897Z</time>
      </trkpt>
      <trkpt lat="44.52534" lon="4.24572">
        <ele>324.454659</ele>
        <time>2021-03-27T20:21:08.315Z</time>
      </trkpt>
      <trkpt lat="44.52549" lon="4.24583">
        <ele>324.00296</ele>
        <time>2021-03-27T20:21:10.553Z</time>
      </trkpt>
      <trkpt lat="44.52551" lon="4.24586">
        <ele>323.901514</ele>
        <time>2021-03-27T20:21:11.022Z</time>
      </trkpt>
      <trkpt lat="44.52528" lon="4.24745">
        <ele>321.298361</ele>
        <time>2021-03-27T20:21:32.153Z</time>
      </trkpt>
      <trkpt lat="44.52527" lon="4.24801">
        <ele>322.342376</ele>
        <time>2021-03-27T20:21:40.086Z</time>
      </trkpt>
      <trkpt lat="44.52518" lon="4.24875">
        <ele>323.730558</ele>
        <time>2021-03-27T20:21:59.471Z</time>
      </trkpt>
      <trkpt lat="44.52499" lon="4.24924">
        <ele>324.760075</ele>
        <time>2021-03-27T20:22:15.377Z</time>
      </trkpt>
      <trkpt lat="44.52501" lon="4.24941">
        <ele>325.082205</ele>
        <time>2021-03-27T20:22:21.802Z</time>
      </trkpt>
      <trkpt lat="44.52517" lon="4.24956">
        <ele>325.587384</ele>
        <time>2021-03-27T20:22:28.788Z</time>
      </trkpt>
      <trkpt lat="44.52536" lon="4.25003">
        <ele>327.55939</ele>
        <time>2021-03-27T20:22:45.630Z</time>
      </trkpt>
      <trkpt lat="44.5254" lon="4.25015">
        <ele>328.053686</ele>
        <time>2021-03-27T20:22:51.695Z</time>
      </trkpt>
      <trkpt lat="44.52541" lon="4.25029">
        <ele>328.561275</ele>
        <time>2021-03-27T20:22:55.090Z</time>
      </trkpt>
      <trkpt lat="44.52541" lon="4.25032">
        <ele>328.689125</ele>
        <time>2021-03-27T20:22:56.077Z</time>
      </trkpt>
      <trkpt lat="44.52544" lon="4.25065">
        <ele>329.969037</ele>
        <time>2021-03-27T20:23:07.305Z</time>
      </trkpt>
      <trkpt lat="44.52538" lon="4.25105">
        <ele>331.543357</ele>
        <time>2021-03-27T20:23:18.566Z</time>
      </trkpt>
      <trkpt lat="44.52492" lon="4.25283">
        <ele>341.314878</ele>
        <time>2021-03-27T20:24:29.470Z</time>
      </trkpt>
      <trkpt lat="44.52494" lon="4.25308">
        <ele>343.007737</ele>
        <time>2021-03-27T20:24:41.961Z</time>
      </trkpt>
      <trkpt lat="44.52502" lon="4.25319">
        <ele>344.080299</ele>
        <time>2021-03-27T20:24:49.188Z</time>
      </trkpt>
      <trkpt lat="44.52542" lon="4.25325">
        <ele>347.789851</ele>
        <time>2021-03-27T20:25:17.636Z</time>
      </trkpt>
      <trkpt lat="44.52568" lon="4.2533">
        <ele>350.28046</ele>
        <time>2021-03-27T20:25:38.431Z</time>
      </trkpt>
      <trkpt lat="44.52592" lon="4.25334">
        <ele>352.572073</ele>
        <time>2021-03-27T20:25:58.573Z</time>
      </trkpt>
      <trkpt lat="44.52671" lon="4.25387">
        <ele>362.127244</ele>
        <time>2021-03-27T20:27:14.264Z</time>
      </trkpt>
      <trkpt lat="44.52729" lon="4.25418">
        <ele>368.835473</ele>
        <time>2021-03-27T20:28:03.680Z</time>
      </trkpt>
      <trkpt lat="44.52741" lon="4.25441">
        <ele>371.063629</ele>
        <time>2021-03-27T20:28:12.090Z</time>
      </trkpt>
      <trkpt lat="44.5274" lon="4.25451">
        <ele>371.818926</ele>
        <time>2021-03-27T20:28:19.236Z</time>
      </trkpt>
      <trkpt lat="44.52726" lon="4.25479">
        <ele>372.811845</ele>
        <time>2021-03-27T20:28:27.317Z</time>
      </trkpt>
      <trkpt lat="44.52704" lon="4.25512">
        <ele>374.117946</ele>
        <time>2021-03-27T20:28:39.228Z</time>
      </trkpt>
      <trkpt lat="44.52684" lon="4.25531">
        <ele>375.123306</ele>
        <time>2021-03-27T20:28:52.114Z</time>
      </trkpt>
      <trkpt lat="44.52651" lon="4.2555">
        <ele>376.57385</ele>
        <time>2021-03-27T20:29:05.857Z</time>
      </trkpt>
      <trkpt lat="44.52629" lon="4.25562">
        <ele>377.518374</ele>
        <time>2021-03-27T20:29:12.050Z</time>
      </trkpt>
      <trkpt lat="44.52623" lon="4.25571">
        <ele>377.864476</ele>
        <time>2021-03-27T20:29:17.371Z</time>
      </trkpt>
      <trkpt lat="44.5262" lon="4.25598">
        <ele>378.654373</ele>
        <time>2021-03-27T20:29:20.812Z</time>
      </trkpt>
      <trkpt lat="44.52629" lon="4.2562">
        <ele>379.418754</ele>
        <time>2021-03-27T20:29:27.796Z</time>
      </trkpt>
      <trkpt lat="44.52645" lon="4.25638">
        <ele>380.327816</ele>
        <time>2021-03-27T20:29:31.971Z</time>
      </trkpt>
      <trkpt lat="44.52648" lon="4.25613">
        <ele>381.094524</ele>
        <time>2021-03-27T20:29:42.563Z</time>
      </trkpt>
      <trkpt lat="44.52665" lon="4.256">
        <ele>381.935682</ele>
        <time>2021-03-27T20:29:49.650Z</time>
      </trkpt>
      <trkpt lat="44.52712" lon="4.25592">
        <ele>384.024334</ele>
        <time>2021-03-27T20:30:17.121Z</time>
      </trkpt>
      <trkpt lat="44.52745" lon="4.25589">
        <ele>385.431992</ele>
        <time>2021-03-27T20:30:35.382Z</time>
      </trkpt>
      <trkpt lat="44.52755" lon="4.25597">
        <ele>385.968814</ele>
        <time>2021-03-27T20:30:43.395Z</time>
      </trkpt>
      <trkpt lat="44.52802" lon="4.25672">
        <ele>389.769828</ele>
        <time>2021-03-27T20:31:29.024Z</time>
      </trkpt>
      <trkpt lat="44.52809" lon="4.25713">
        <ele>391.526918</ele>
        <time>2021-03-27T20:31:49.006Z</time>
      </trkpt>
      <trkpt lat="44.52817" lon="4.25731">
        <ele>392.417687</ele>
        <time>2021-03-27T20:31:59.519Z</time>
      </trkpt>
      <trkpt lat="44.5284" lon="4.2576">
        <ele>394.261895</ele>
        <time>2021-03-27T20:32:18.801Z</time>
      </trkpt>
      <trkpt lat="44.52857" lon="4.25793">
        <ele>395.963874</ele>
        <time>2021-03-27T20:32:35.232Z</time>
      </trkpt>
      <trkpt lat="44.52858" lon="4.25804">
        <ele>396.416676</ele>
        <time>2021-03-27T20:32:40.351Z</time>
      </trkpt>
      <trkpt lat="44.52868" lon="4.25811">
        <ele>397.082928</ele>
        <time>2021-03-27T20:32:47.080Z</time>
      </trkpt>
      <trkpt lat="44.52881" lon="4.2582">
        <ele>397.523791</ele>
        <time>2021-03-27T20:32:53.703Z</time>
      </trkpt>
      <trkpt lat="44.52895" lon="4.25825">
        <ele>397.620154</ele>
        <time>2021-03-27T20:33:01.904Z</time>
      </trkpt>
      <trkpt lat="44.52897" lon="4.25851">
        <ele>397.748171</ele>
        <time>2021-03-27T20:33:10.979Z</time>
      </trkpt>
      <trkpt lat="44.52898" lon="4.25918">
        <ele>398.077593</ele>
        <time>2021-03-27T20:33:33.348Z</time>
      </trkpt>
      <trkpt lat="44.52894" lon="4.25932">
        <ele>398.153012</ele>
        <time>2021-03-27T20:33:36.610Z</time>
      </trkpt>
      <trkpt lat="44.52877" lon="4.25946">
        <ele>398.284923</ele>
        <time>2021-03-27T20:33:42.569Z</time>
      </trkpt>
      <trkpt lat="44.52865" lon="4.2602">
        <ele>398.656213</ele>
        <time>2021-03-27T20:33:57.387Z</time>
      </trkpt>
      <trkpt lat="44.52839" lon="4.26014">
        <ele>397.579424</ele>
        <time>2021-03-27T20:34:03.969Z</time>
      </trkpt>
      <trkpt lat="44.52814" lon="4.26022">
        <ele>395.979505</ele>
        <time>2021-03-27T20:34:10.212Z</time>
      </trkpt>
      <trkpt lat="44.52806" lon="4.26024">
        <ele>395.470691</ele>
        <time>2021-03-27T20:34:12.168Z</time>
      </trkpt>
      <trkpt lat="44.52791" lon="4.26024">
        <ele>394.573351</ele>
        <time>2021-03-27T20:34:15.411Z</time>
      </trkpt>
      <trkpt lat="44.52769" lon="4.26035">
        <ele>393.130426</ele>
        <time>2021-03-27T20:34:21.012Z</time>
      </trkpt>
      <trkpt lat="44.52763" lon="4.26085">
        <ele>390.929166</ele>
        <time>2021-03-27T20:34:29.236Z</time>
      </trkpt>
      <trkpt lat="44.52756" lon="4.26096">
        <ele>390.258005</ele>
        <time>2021-03-27T20:34:31.626Z</time>
      </trkpt>
      <trkpt lat="44.52733" lon="4.26098">
        <ele>388.822161</ele>
        <time>2021-03-27T20:34:36.970Z</time>
      </trkpt>
      <trkpt lat="44.52712" lon="4.26075">
        <ele>387.147068</ele>
        <time>2021-03-27T20:34:42.749Z</time>
      </trkpt>
      <trkpt lat="44.52695" lon="4.26077">
        <ele>385.992453</ele>
        <time>2021-03-27T20:34:46.500Z</time>
      </trkpt>
      <trkpt lat="44.52667" lon="4.26098">
        <ele>383.887027</ele>
        <time>2021-03-27T20:34:53.478Z</time>
      </trkpt>
      <trkpt lat="44.52614" lon="4.26087">
        <ele>380.270552</ele>
        <time>2021-03-27T20:35:05.859Z</time>
      </trkpt>
      <trkpt lat="44.52608" lon="4.26081">
        <ele>379.767918</ele>
        <time>2021-03-27T20:35:07.499Z</time>
      </trkpt>
      <trkpt lat="44.52596" lon="4.26077">
        <ele>378.942082</ele>
        <time>2021-03-27T20:35:10.491Z</time>
      </trkpt>
      <trkpt lat="44.52577" lon="4.26072">
        <ele>377.650715</ele>
        <time>2021-03-27T20:35:14.896Z</time>
      </trkpt>
      <trkpt lat="44.52541" lon="4.26078">
        <ele>375.234216</ele>
        <time>2021-03-27T20:35:23.379Z</time>
      </trkpt>
      <trkpt lat="44.52486" lon="4.26142">
        <ele>370.772599</ele>
        <time>2021-03-27T20:35:40.583Z</time>
      </trkpt>
      <trkpt lat="44.5248" lon="4.26157">
        <ele>370.029539</ele>
        <time>2021-03-27T20:35:43.531Z</time>
      </trkpt>
      <trkpt lat="44.52474" lon="4.26157">
        <ele>369.65044</ele>
        <time>2021-03-27T20:35:45.071Z</time>
      </trkpt>
      <trkpt lat="44.52466" lon="4.26126">
        <ele>368.216823</ele>
        <time>2021-03-27T20:35:50.742Z</time>
      </trkpt>
      <trkpt lat="44.52446" lon="4.26115">
        <ele>366.835004</ele>
        <time>2021-03-27T20:35:55.662Z</time>
      </trkpt>
      <trkpt lat="44.52435" lon="4.26097">
        <ele>365.811245</ele>
        <time>2021-03-27T20:35:59.653Z</time>
      </trkpt>
      <trkpt lat="44.52379" lon="4.26127">
        <ele>360.188876</ele>
        <time>2021-03-27T20:36:12.898Z</time>
      </trkpt>
      <trkpt lat="44.52367" lon="4.26124">
        <ele>358.767418</ele>
        <time>2021-03-27T20:36:15.700Z</time>
      </trkpt>
      <trkpt lat="44.52351" lon="4.26099">
        <ele>356.095845</ele>
        <time>2021-03-27T20:36:20.703Z</time>
      </trkpt>
      <trkpt lat="44.5235" lon="4.26096">
        <ele>355.851643</ele>
        <time>2021-03-27T20:36:21.185Z</time>
      </trkpt>
      <trkpt lat="44.52343" lon="4.26093">
        <ele>355.039036</ele>
        <time>2021-03-27T20:36:22.779Z</time>
      </trkpt>
      <trkpt lat="44.52338" lon="4.26095">
        <ele>354.369466</ele>
        <time>2021-03-27T20:36:24.018Z</time>
      </trkpt>
      <trkpt lat="44.52331" lon="4.26104">
        <ele>353.324015</ele>
        <time>2021-03-27T20:36:25.857Z</time>
      </trkpt>
      <trkpt lat="44.5227" lon="4.26134">
        <ele>345.973438</ele>
        <time>2021-03-27T20:36:39.424Z</time>
      </trkpt>
      <trkpt lat="44.52252" lon="4.26151">
        <ele>343.536571</ele>
        <time>2021-03-27T20:36:43.756Z</time>
      </trkpt>
      <trkpt lat="44.52239" lon="4.26174">
        <ele>340.894085</ele>
        <time>2021-03-27T20:36:48.023Z</time>
      </trkpt>
      <trkpt lat="44.52201" lon="4.26197">
        <ele>335.808882</ele>
        <time>2021-03-27T20:36:56.194Z</time>
      </trkpt>
      <trkpt lat="44.52191" lon="4.26237">
        <ele>332.037355</ele>
        <time>2021-03-27T20:37:02.649Z</time>
      </trkpt>
      <trkpt lat="44.52168" lon="4.2627">
        <ele>327.980477</ele>
        <time>2021-03-27T20:37:09.579Z</time>
      </trkpt>
      <trkpt lat="44.52161" lon="4.26297">
        <ele>325.453031</ele>
        <time>2021-03-27T20:37:13.825Z</time>
      </trkpt>
      <trkpt lat="44.52164" lon="4.2632">
        <ele>323.379923</ele>
        <time>2021-03-27T20:37:17.572Z</time>
      </trkpt>
      <trkpt lat="44.52165" lon="4.26333">
        <ele>322.230398</ele>
        <time>2021-03-27T20:37:19.400Z</time>
      </trkpt>
      <trkpt lat="44.5217" lon="4.26334">
        <ele>321.742201</ele>
        <time>2021-03-27T20:37:21.212Z</time>
      </trkpt>
      <trkpt lat="44.52234" lon="4.26315">
        <ele>320.310349</ele>
        <time>2021-03-27T20:37:36.094Z</time>
      </trkpt>
      <trkpt lat="44.52251" lon="4.26315">
        <ele>319.951672</ele>
        <time>2021-03-27T20:37:41.681Z</time>
      </trkpt>
      <trkpt lat="44.52274" lon="4.26325">
        <ele>319.428964</ele>
        <time>2021-03-27T20:37:47.709Z</time>
      </trkpt>
      <trkpt lat="44.52278" lon="4.26331">
        <ele>319.296739</ele>
        <time>2021-03-27T20:37:50.645Z</time>
      </trkpt>
      <trkpt lat="44.52294" lon="4.26337">
        <ele>318.935822</ele>
        <time>2021-03-27T20:37:55.574Z</time>
      </trkpt>
      <trkpt lat="44.52321" lon="4.26351">
        <ele>318.302713</ele>
        <time>2021-03-27T20:38:02.635Z</time>
      </trkpt>
      <trkpt lat="44.52341" lon="4.26393">
        <ele>319.039916</ele>
        <time>2021-03-27T20:38:19.115Z</time>
      </trkpt>
      <trkpt lat="44.52426" lon="4.26388">
        <ele>325.402594</ele>
        <time>2021-03-27T20:39:05.817Z</time>
      </trkpt>
      <trkpt lat="44.52471" lon="4.26368">
        <ele>328.939541</ele>
        <time>2021-03-27T20:39:36.668Z</time>
      </trkpt>
      <trkpt lat="44.52493" lon="4.26348">
        <ele>330.899245</ele>
        <time>2021-03-27T20:39:54.859Z</time>
      </trkpt>
      <trkpt lat="44.52534" lon="4.2633">
        <ele>334.96802</ele>
        <time>2021-03-27T20:40:25.622Z</time>
      </trkpt>
      <trkpt lat="44.52553" lon="4.26313">
        <ele>337.162379</ele>
        <time>2021-03-27T20:40:41.763Z</time>
      </trkpt>
      <trkpt lat="44.52579" lon="4.26291">
        <ele>340.141281</ele>
        <time>2021-03-27T20:41:03.493Z</time>
      </trkpt>
      <trkpt lat="44.52618" lon="4.26271">
        <ele>344.221756</ele>
        <time>2021-03-27T20:41:32.908Z</time>
      </trkpt>
      <trkpt lat="44.52665" lon="4.26267">
        <ele>348.810055</ele>
        <time>2021-03-27T20:42:05.054Z</time>
      </trkpt>
      <trkpt lat="44.5273" lon="4.26237">
        <ele>354.15182</ele>
        <time>2021-03-27T20:42:47.725Z</time>
      </trkpt>
      <trkpt lat="44.52775" lon="4.26234">
        <ele>357.67306</ele>
        <time>2021-03-27T20:43:15.713Z</time>
      </trkpt>
      <trkpt lat="44.52795" lon="4.26242">
        <ele>359.239668</ele>
        <time>2021-03-27T20:43:26.362Z</time>
      </trkpt>
      <trkpt lat="44.52803" lon="4.26254">
        <ele>360.160461</ele>
        <time>2021-03-27T20:43:32.301Z</time>
      </trkpt>
      <trkpt lat="44.52803" lon="4.26257">
        <ele>360.3399</ele>
        <time>2021-03-27T20:43:34.152Z</time>
      </trkpt>
      <trkpt lat="44.52801" lon="4.26257">
        <ele>360.426718</ele>
        <time>2021-03-27T20:43:34.626Z</time>
      </trkpt>
      <trkpt lat="44.52805" lon="4.26266">
        <ele>361.00398</ele>
        <time>2021-03-27T20:43:37.824Z</time>
      </trkpt>
      <trkpt lat="44.52805" lon="4.26277">
        <ele>361.595014</ele>
        <time>2021-03-27T20:43:41.100Z</time>
      </trkpt>
      <trkpt lat="44.52796" lon="4.26302">
        <ele>363.011197</ele>
        <time>2021-03-27T20:43:49.697Z</time>
      </trkpt>
      <trkpt lat="44.52795" lon="4.26308">
        <ele>363.176164</ele>
        <time>2021-03-27T20:43:51.616Z</time>
      </trkpt>
      <trkpt lat="44.52797" lon="4.26315">
        <ele>363.364894</ele>
        <time>2021-03-27T20:43:53.807Z</time>
      </trkpt>
      <trkpt lat="44.52804" lon="4.26315">
        <ele>363.635402</ele>
        <time>2021-03-27T20:43:56.938Z</time>
      </trkpt>
      <trkpt lat="44.5282" lon="4.26301">
        <ele>364.314114</ele>
        <time>2021-03-27T20:44:04.809Z</time>
      </trkpt>
      <trkpt lat="44.52831" lon="4.263">
        <ele>364.721472</ele>
        <time>2021-03-27T20:44:09.522Z</time>
      </trkpt>
      <trkpt lat="44.52838" lon="4.26301">
        <ele>364.99423</ele>
        <time>2021-03-27T20:44:12.677Z</time>
      </trkpt>
      <trkpt lat="44.52844" lon="4.26305">
        <ele>365.232018</ele>
        <time>2021-03-27T20:44:15.430Z</time>
      </trkpt>
      <trkpt lat="44.52844" lon="4.26308">
        <ele>365.316438</ele>
        <time>2021-03-27T20:44:16.410Z</time>
      </trkpt>
      <trkpt lat="44.52824" lon="4.26321">
        <ele>366.128219</ele>
        <time>2021-03-27T20:44:25.810Z</time>
      </trkpt>
      <trkpt lat="44.52817" lon="4.26328">
        <ele>366.427477</ele>
        <time>2021-03-27T20:44:29.275Z</time>
      </trkpt>
      <trkpt lat="44.52822" lon="4.26346">
        <ele>366.924013</ele>
        <time>2021-03-27T20:44:35.038Z</time>
      </trkpt>
      <trkpt lat="44.52822" lon="4.26345">
        <ele>366.967065</ele>
        <time>2021-03-27T20:44:35.539Z</time>
      </trkpt>
      <trkpt lat="44.5282" lon="4.26343">
        <ele>367.070269</ele>
        <time>2021-03-27T20:44:37.851Z</time>
      </trkpt>
      <trkpt lat="44.52822" lon="4.26345">
        <ele>367.173473</ele>
        <time>2021-03-27T20:44:38.682Z</time>
      </trkpt>
      <trkpt lat="44.52839" lon="4.26359">
        <ele>367.903133</ele>
        <time>2021-03-27T20:44:45.716Z</time>
      </trkpt>
      <trkpt lat="44.52845" lon="4.2637">
        <ele>368.265843</ele>
        <time>2021-03-27T20:44:50.556Z</time>
      </trkpt>
      <trkpt lat="44.52848" lon="4.26415">
        <ele>369.458672</ele>
        <time>2021-03-27T20:45:02.729Z</time>
      </trkpt>
      <trkpt lat="44.52848" lon="4.26421">
        <ele>369.487089</ele>
        <time>2021-03-27T20:45:05.828Z</time>
      </trkpt>
      <trkpt lat="44.52834" lon="4.26433">
        <ele>369.062542</ele>
        <time>2021-03-27T20:45:10.376Z</time>
      </trkpt>
      <trkpt lat="44.52808" lon="4.2645">
        <ele>368.278975</ele>
        <time>2021-03-27T20:45:20.039Z</time>
      </trkpt>
      <trkpt lat="44.52754" lon="4.26522">
        <ele>366.290124</ele>
        <time>2021-03-27T20:45:38.867Z</time>
      </trkpt>
      <trkpt lat="44.52737" lon="4.26553">
        <ele>365.527681</ele>
        <time>2021-03-27T20:45:45.848Z</time>
      </trkpt>
      <trkpt lat="44.52692" lon="4.26599">
        <ele>363.652129</ele>
        <time>2021-03-27T20:45:59.206Z</time>
      </trkpt>
      <trkpt lat="44.52688" lon="4.26604">
        <ele>363.408911</ele>
        <time>2021-03-27T20:46:00.444Z</time>
      </trkpt>
      <trkpt lat="44.52687" lon="4.266">
        <ele>363.276774</ele>
        <time>2021-03-27T20:46:01.049Z</time>
      </trkpt>
      <trkpt lat="44.52673" lon="4.26602">
        <ele>362.684096</ele>
        <time>2021-03-27T20:46:04.690Z</time>
      </trkpt>
      <trkpt lat="44.52614" lon="4.26698">
        <ele>358.802718</ele>
        <time>2021-03-27T20:46:27.119Z</time>
      </trkpt>
      <trkpt lat="44.52609" lon="4.26738">
        <ele>357.527466</ele>
        <time>2021-03-27T20:46:34.673Z</time>
      </trkpt>
      <trkpt lat="44.52598" lon="4.26749">
        <ele>356.977604</ele>
        <time>2021-03-27T20:46:37.563Z</time>
      </trkpt>
      <trkpt lat="44.52589" lon="4.26784">
        <ele>355.727088</ele>
        <time>2021-03-27T20:46:44.674Z</time>
      </trkpt>
      <trkpt lat="44.52584" lon="4.26792">
        <ele>355.382051</ele>
        <time>2021-03-27T20:46:46.621Z</time>
      </trkpt>
      <trkpt lat="44.52585" lon="4.26793">
        <ele>355.324351</ele>
        <time>2021-03-27T20:46:47.167Z</time>
      </trkpt>
      <trkpt lat="44.52575" lon="4.26805">
        <ele>354.729879</ele>
        <time>2021-03-27T20:46:52.645Z</time>
      </trkpt>
      <trkpt lat="44.52569" lon="4.26818">
        <ele>354.203817</ele>
        <time>2021-03-27T20:46:57.498Z</time>
      </trkpt>
      <trkpt lat="44.52561" lon="4.26824">
        <ele>353.801575</ele>
        <time>2021-03-27T20:47:01.204Z</time>
      </trkpt>
      <trkpt lat="44.52551" lon="4.26836">
        <ele>353.194898</ele>
        <time>2021-03-27T20:47:06.794Z</time>
      </trkpt>
      <trkpt lat="44.52547" lon="4.26839">
        <ele>352.980213</ele>
        <time>2021-03-27T20:47:08.772Z</time>
      </trkpt>
      <trkpt lat="44.52533" lon="4.26837">
        <ele>352.326303</ele>
        <time>2021-03-27T20:47:14.792Z</time>
      </trkpt>
      <trkpt lat="44.52524" lon="4.2684">
        <ele>351.894959</ele>
        <time>2021-03-27T20:47:18.761Z</time>
      </trkpt>
      <trkpt lat="44.52516" lon="4.26848">
        <ele>351.453533</ele>
        <time>2021-03-27T20:47:22.830Z</time>
      </trkpt>
      <trkpt lat="44.52507" lon="4.26852">
        <ele>351.008374</ele>
        <time>2021-03-27T20:47:26.932Z</time>
      </trkpt>
      <trkpt lat="44.52497" lon="4.26852">
        <ele>350.538947</ele>
        <time>2021-03-27T20:47:31.256Z</time>
      </trkpt>
      <trkpt lat="44.52488" lon="4.26849">
        <ele>350.086456</ele>
        <time>2021-03-27T20:47:35.421Z</time>
      </trkpt>
      <trkpt lat="44.52453" lon="4.26817">
        <ele>347.824208</ele>
        <time>2021-03-27T20:47:53.286Z</time>
      </trkpt>
      <trkpt lat="44.52432" lon="4.26823">
        <ele>346.147383</ele>
        <time>2021-03-27T20:48:02.352Z</time>
      </trkpt>
      <trkpt lat="44.52424" lon="4.2682">
        <ele>345.506251</ele>
        <time>2021-03-27T20:48:05.817Z</time>
      </trkpt>
      <trkpt lat="44.52411" lon="4.26818">
        <ele>344.426387</ele>
        <time>2021-03-27T20:48:11.654Z</time>
      </trkpt>
      <trkpt lat="44.52405" lon="4.26812">
        <ele>343.822526</ele>
        <time>2021-03-27T20:48:14.922Z</time>
      </trkpt>
      <trkpt lat="44.52393" lon="4.26793">
        <ele>342.412172</ele>
        <time>2021-03-27T20:48:22.556Z</time>
      </trkpt>
      <trkpt lat="44.52388" lon="4.2679">
        <ele>342.019606</ele>
        <time>2021-03-27T20:48:24.679Z</time>
      </trkpt>
      <trkpt lat="44.5237" lon="4.26785">
        <ele>340.568221</ele>
        <time>2021-03-27T20:48:32.536Z</time>
      </trkpt>
      <trkpt lat="44.52328" lon="4.26777">
        <ele>337.136859</ele>
        <time>2021-03-27T20:48:51.090Z</time>
      </trkpt>
      <trkpt lat="44.52303" lon="4.26767">
        <ele>335.135396</ele>
        <time>2021-03-27T20:49:01.915Z</time>
      </trkpt>
      <trkpt lat="44.52296" lon="4.26765">
        <ele>334.525329</ele>
        <time>2021-03-27T20:49:05.220Z</time>
      </trkpt>
      <trkpt lat="44.5229" lon="4.26766">
        <ele>334.038059</ele>
        <time>2021-03-27T20:49:07.756Z</time>
      </trkpt>
      <trkpt lat="44.52286" lon="4.26768">
        <ele>333.657276</ele>
        <time>2021-03-27T20:49:09.697Z</time>
      </trkpt>
      <trkpt lat="44.52281" lon="4.26778">
        <ele>332.958033</ele>
        <time>2021-03-27T20:49:13.271Z</time>
      </trkpt>
      <trkpt lat="44.52281" lon="4.26796">
        <ele>331.921095</ele>
        <time>2021-03-27T20:49:18.580Z</time>
      </trkpt>
      <trkpt lat="44.52291" lon="4.26816">
        <ele>330.426745</ele>
        <time>2021-03-27T20:49:26.213Z</time>
      </trkpt>
      <trkpt lat="44.52291" lon="4.26821">
        <ele>330.126935</ele>
        <time>2021-03-27T20:49:27.746Z</time>
      </trkpt>
      <trkpt lat="44.52289" lon="4.26828">
        <ele>329.6958</ele>
        <time>2021-03-27T20:49:29.950Z</time>
      </trkpt>
      <trkpt lat="44.52289" lon="4.26829">
        <ele>329.593558</ele>
        <time>2021-03-27T20:49:30.473Z</time>
      </trkpt>
      <trkpt lat="44.52289" lon="4.26824">
        <ele>329.283738</ele>
        <time>2021-03-27T20:49:32.056Z</time>
      </trkpt>
      <trkpt lat="44.52289" lon="4.26825">
        <ele>329.259763</ele>
        <time>2021-03-27T20:49:32.179Z</time>
      </trkpt>
      <trkpt lat="44.52287" lon="4.26831">
        <ele>328.833138</ele>
        <time>2021-03-27T20:49:33.213Z</time>
      </trkpt>
      <trkpt lat="44.52289" lon="4.26864">
        <ele>326.875601</ele>
        <time>2021-03-27T20:49:38.441Z</time>
      </trkpt>
      <trkpt lat="44.52282" lon="4.26877">
        <ele>325.860029</ele>
        <time>2021-03-27T20:49:41.057Z</time>
      </trkpt>
      <trkpt lat="44.5224" lon="4.26905">
        <ele>321.970922</ele>
        <time>2021-03-27T20:49:51.334Z</time>
      </trkpt>
      <trkpt lat="44.5221" lon="4.26897">
        <ele>319.431783</ele>
        <time>2021-03-27T20:49:58.048Z</time>
      </trkpt>
      <trkpt lat="44.52148" lon="4.26961">
        <ele>313.207453</ele>
        <time>2021-03-27T20:50:15.219Z</time>
      </trkpt>
      <trkpt lat="44.52134" lon="4.26998">
        <ele>310.799866</ele>
        <time>2021-03-27T20:50:21.750Z</time>
      </trkpt>
      <trkpt lat="44.52109" lon="4.27009">
        <ele>308.762165</ele>
        <time>2021-03-27T20:50:27.238Z</time>
      </trkpt>
      <trkpt lat="44.5207" lon="4.27046">
        <ele>304.959753</ele>
        <time>2021-03-27T20:50:37.891Z</time>
      </trkpt>
      <trkpt lat="44.52025" lon="4.27043">
        <ele>303.236453</ele>
        <time>2021-03-27T20:50:48.381Z</time>
      </trkpt>
      <trkpt lat="44.52019" lon="4.27042">
        <ele>303.012567</ele>
        <time>2021-03-27T20:50:49.728Z</time>
      </trkpt>
      <trkpt lat="44.52013" lon="4.27048">
        <ele>302.756183</ele>
        <time>2021-03-27T20:50:51.405Z</time>
      </trkpt>
      <trkpt lat="44.51987" lon="4.2707">
        <ele>301.691069</ele>
        <time>2021-03-27T20:50:58.820Z</time>
      </trkpt>
      <trkpt lat="44.5198" lon="4.27079">
        <ele>301.366996</ele>
        <time>2021-03-27T20:51:01.118Z</time>
      </trkpt>
      <trkpt lat="44.51974" lon="4.27093">
        <ele>300.944384</ele>
        <time>2021-03-27T20:51:04.566Z</time>
      </trkpt>
      <trkpt lat="44.51969" lon="4.2714">
        <ele>299.759813</ele>
        <time>2021-03-27T20:51:13.765Z</time>
      </trkpt>
      <trkpt lat="44.51969" lon="4.27153">
        <ele>299.426896</ele>
        <time>2021-03-27T20:51:17.349Z</time>
      </trkpt>
      <trkpt lat="44.51963" lon="4.2715">
        <ele>299.182417</ele>
        <time>2021-03-27T20:51:19.024Z</time>
      </trkpt>
      <trkpt lat="44.51944" lon="4.27161">
        <ele>298.48433</ele>
        <time>2021-03-27T20:51:25.409Z</time>
      </trkpt>
      <trkpt lat="44.51932" lon="4.27183">
        <ele>298.654851</ele>
        <time>2021-03-27T20:51:31.477Z</time>
      </trkpt>
      <trkpt lat="44.51936" lon="4.2719">
        <ele>298.763373</ele>
        <time>2021-03-27T20:51:33.569Z</time>
      </trkpt>
      <trkpt lat="44.51941" lon="4.27201">
        <ele>298.914903</ele>
        <time>2021-03-27T20:51:37.415Z</time>
      </trkpt>
      <trkpt lat="44.52011" lon="4.27247">
        <ele>300.20164</ele>
        <time>2021-03-27T20:52:11.146Z</time>
      </trkpt>
      <trkpt lat="44.52023" lon="4.27255">
        <ele>300.422456</ele>
        <time>2021-03-27T20:52:16.574Z</time>
      </trkpt>
      <trkpt lat="44.5207" lon="4.27291">
        <ele>301.308655</ele>
        <time>2021-03-27T20:52:39.842Z</time>
      </trkpt>
      <trkpt lat="44.52078" lon="4.27302">
        <ele>301.396732</ele>
        <time>2021-03-27T20:52:45.015Z</time>
      </trkpt>
      <trkpt lat="44.52083" lon="4.2732">
        <ele>301.451219</ele>
        <time>2021-03-27T20:52:50.888Z</time>
      </trkpt>
      <trkpt lat="44.52083" lon="4.27329">
        <ele>301.47829</ele>
        <time>2021-03-27T20:52:54.229Z</time>
      </trkpt>
      <trkpt lat="44.52091" lon="4.27319">
        <ele>301.521679</ele>
        <time>2021-03-27T20:52:58.324Z</time>
      </trkpt>
      <trkpt lat="44.52092" lon="4.27317">
        <ele>301.527964</ele>
        <time>2021-03-27T20:52:58.837Z</time>
      </trkpt>
      <trkpt lat="44.52097" lon="4.27313">
        <ele>301.551779</ele>
        <time>2021-03-27T20:53:01.256Z</time>
      </trkpt>
      <trkpt lat="44.52102" lon="4.27313">
        <ele>301.573903</ele>
        <time>2021-03-27T20:53:03.345Z</time>
      </trkpt>
      <trkpt lat="44.52148" lon="4.27255">
        <ele>301.824977</ele>
        <time>2021-03-27T20:53:24.411Z</time>
      </trkpt>
      <trkpt lat="44.52102" lon="4.27313">
        <ele>302.076051</ele>
        <time>2021-03-27T20:53:42.608Z</time>
      </trkpt>
      <trkpt lat="44.52129" lon="4.27331">
        <ele>301.73179</ele>
        <time>2021-03-27T20:53:50.639Z</time>
      </trkpt>
      <trkpt lat="44.52172" lon="4.27366">
        <ele>300.956472</ele>
        <time>2021-03-27T20:54:04.862Z</time>
      </trkpt>
      <trkpt lat="44.52198" lon="4.27394">
        <ele>300.445408</ele>
        <time>2021-03-27T20:54:14.083Z</time>
      </trkpt>
      <trkpt lat="44.52204" lon="4.27406">
        <ele>300.283737</ele>
        <time>2021-03-27T20:54:16.816Z</time>
      </trkpt>
      <trkpt lat="44.52224" lon="4.27409">
        <ele>299.973719</ele>
        <time>2021-03-27T20:54:22.221Z</time>
      </trkpt>
      <trkpt lat="44.52252" lon="4.27431">
        <ele>299.481218</ele>
        <time>2021-03-27T20:54:30.874Z</time>
      </trkpt>
      <trkpt lat="44.52273" lon="4.27456">
        <ele>299.566316</ele>
        <time>2021-03-27T20:54:38.804Z</time>
      </trkpt>
      <trkpt lat="44.523" lon="4.27445">
        <ele>299.969168</ele>
        <time>2021-03-27T20:54:48.037Z</time>
      </trkpt>
      <trkpt lat="44.52301" lon="4.2745">
        <ele>300.024372</ele>
        <time>2021-03-27T20:54:49.670Z</time>
      </trkpt>
      <trkpt lat="44.52306" lon="4.27458">
        <ele>300.13207</ele>
        <time>2021-03-27T20:54:52.819Z</time>
      </trkpt>
      <trkpt lat="44.52313" lon="4.27458">
        <ele>300.243328</ele>
        <time>2021-03-27T20:54:56.068Z</time>
      </trkpt>
      <trkpt lat="44.52319" lon="4.27454">
        <ele>300.330941</ele>
        <time>2021-03-27T20:54:58.629Z</time>
      </trkpt>
      <trkpt lat="44.52326" lon="4.27452">
        <ele>300.438187</ele>
        <time>2021-03-27T20:55:01.761Z</time>
      </trkpt>
      <trkpt lat="44.52332" lon="4.27454">
        <ele>300.533751</ele>
        <time>2021-03-27T20:55:04.552Z</time>
      </trkpt>
      <trkpt lat="44.52342" lon="4.27454">
        <ele>300.671416</ele>
        <time>2021-03-27T20:55:08.572Z</time>
      </trkpt>
      <trkpt lat="44.52349" lon="4.27459">
        <ele>300.794746</ele>
        <time>2021-03-27T20:55:12.176Z</time>
      </trkpt>
      <trkpt lat="44.52351" lon="4.27469">
        <ele>300.901024</ele>
        <time>2021-03-27T20:55:15.291Z</time>
      </trkpt>
      <trkpt lat="44.52355" lon="4.27477">
        <ele>301.003927</ele>
        <time>2021-03-27T20:55:18.304Z</time>
      </trkpt>
      <trkpt lat="44.52359" lon="4.27476">
        <ele>301.054393</ele>
        <time>2021-03-27T20:55:19.777Z</time>
      </trkpt>
      <trkpt lat="44.52367" lon="4.27477">
        <ele>301.182584</ele>
        <time>2021-03-27T20:55:23.521Z</time>
      </trkpt>
      <trkpt lat="44.52366" lon="4.27485">
        <ele>301.261741</ele>
        <time>2021-03-27T20:55:25.840Z</time>
      </trkpt>
      <trkpt lat="44.5236" lon="4.27489">
        <ele>301.352297</ele>
        <time>2021-03-27T20:55:28.488Z</time>
      </trkpt>
      <trkpt lat="44.52367" lon="4.27498">
        <ele>301.491304</ele>
        <time>2021-03-27T20:55:32.557Z</time>
      </trkpt>
      <trkpt lat="44.52371" lon="4.27509">
        <ele>301.617164</ele>
        <time>2021-03-27T20:55:36.241Z</time>
      </trkpt>
      <trkpt lat="44.52375" lon="4.27511">
        <ele>301.676439</ele>
        <time>2021-03-27T20:55:37.973Z</time>
      </trkpt>
      <trkpt lat="44.52375" lon="4.27519">
        <ele>301.757963</ele>
        <time>2021-03-27T20:55:40.363Z</time>
      </trkpt>
      <trkpt lat="44.52379" lon="4.27537">
        <ele>301.947328</ele>
        <time>2021-03-27T20:55:45.913Z</time>
      </trkpt>
      <trkpt lat="44.52389" lon="4.27547">
        <ele>302.54264</ele>
        <time>2021-03-27T20:55:51.502Z</time>
      </trkpt>
      <trkpt lat="44.52394" lon="4.27543">
        <ele>302.801303</ele>
        <time>2021-03-27T20:55:53.912Z</time>
      </trkpt>
      <trkpt lat="44.52405" lon="4.2757">
        <ele>303.80673</ele>
        <time>2021-03-27T20:56:06.363Z</time>
      </trkpt>
      <trkpt lat="44.52404" lon="4.27579">
        <ele>304.117858</ele>
        <time>2021-03-27T20:56:10.963Z</time>
      </trkpt>
      <trkpt lat="44.52384" lon="4.27591">
        <ele>305.073816</ele>
        <time>2021-03-27T20:56:22.182Z</time>
      </trkpt>
      <trkpt lat="44.52381" lon="4.276">
        <ele>305.433913</ele>
        <time>2021-03-27T20:56:27.133Z</time>
      </trkpt>
      <trkpt lat="44.52432" lon="4.2773">
        <ele>310.256274</ele>
        <time>2021-03-27T20:57:27.765Z</time>
      </trkpt>
      <trkpt lat="44.52421" lon="4.27738">
        <ele>310.668368</ele>
        <time>2021-03-27T20:57:33.161Z</time>
      </trkpt>
      <trkpt lat="44.52429" lon="4.27752">
        <ele>311.080842</ele>
        <time>2021-03-27T20:57:38.545Z</time>
      </trkpt>
      <trkpt lat="44.52454" lon="4.27732">
        <ele>312.032732</ele>
        <time>2021-03-27T20:57:50.960Z</time>
      </trkpt>
      <trkpt lat="44.52454" lon="4.27725">
        <ele>312.194451</ele>
        <time>2021-03-27T20:57:53.074Z</time>
      </trkpt>
      <trkpt lat="44.52455" lon="4.27723">
        <ele>312.270891</ele>
        <time>2021-03-27T20:57:54.072Z</time>
      </trkpt>
      <trkpt lat="44.52456" lon="4.27725">
        <ele>312.310796</ele>
        <time>2021-03-27T20:57:54.593Z</time>
      </trkpt>
      <trkpt lat="44.52453" lon="4.27723">
        <ele>312.41091</ele>
        <time>2021-03-27T20:57:55.898Z</time>
      </trkpt>
      <trkpt lat="44.52449" lon="4.27724">
        <ele>312.543605</ele>
        <time>2021-03-27T20:57:57.627Z</time>
      </trkpt>
      <trkpt lat="44.52453" lon="4.2773">
        <ele>312.736996</ele>
        <time>2021-03-27T20:58:00.152Z</time>
      </trkpt>
      <trkpt lat="44.52457" lon="4.2773">
        <ele>312.862036</ele>
        <time>2021-03-27T20:58:01.783Z</time>
      </trkpt>
      <trkpt lat="44.52463" lon="4.27732">
        <ele>313.061769</ele>
        <time>2021-03-27T20:58:04.388Z</time>
      </trkpt>
      <trkpt lat="44.5247" lon="4.27746">
        <ele>313.458068</ele>
        <time>2021-03-27T20:58:09.562Z</time>
      </trkpt>
      <trkpt lat="44.52471" lon="4.27758">
        <ele>313.758064</ele>
        <time>2021-03-27T20:58:13.483Z</time>
      </trkpt>
      <trkpt lat="44.52476" lon="4.27764">
        <ele>313.950875</ele>
        <time>2021-03-27T20:58:16.001Z</time>
      </trkpt>
      <trkpt lat="44.52482" lon="4.2778">
        <ele>314.375869</ele>
        <time>2021-03-27T20:58:21.555Z</time>
      </trkpt>
      <trkpt lat="44.52503" lon="4.27818">
        <ele>315.498622</ele>
        <time>2021-03-27T20:58:36.218Z</time>
      </trkpt>
      <trkpt lat="44.52503" lon="4.27818">
        <ele>315.503301</ele>
        <time>2021-03-27T20:58:36.278Z</time>
      </trkpt>
      <trkpt lat="44.52512" lon="4.27817">
        <ele>315.803216</ele>
        <time>2021-03-27T20:58:39.390Z</time>
      </trkpt>
      <trkpt lat="44.52529" lon="4.27824">
        <ele>316.274565</ele>
        <time>2021-03-27T20:58:47.068Z</time>
      </trkpt>
      <trkpt lat="44.52567" lon="4.27853">
        <ele>317.113484</ele>
        <time>2021-03-27T20:59:05.801Z</time>
      </trkpt>
      <trkpt lat="44.52568" lon="4.27853">
        <ele>317.136704</ele>
        <time>2021-03-27T20:59:06.421Z</time>
      </trkpt>
      <trkpt lat="44.52568" lon="4.27857">
        <ele>317.187656</ele>
        <time>2021-03-27T20:59:07.546Z</time>
      </trkpt>
      <trkpt lat="44.52582" lon="4.27844">
        <ele>317.508956</ele>
        <time>2021-03-27T20:59:14.665Z</time>
      </trkpt>
      <trkpt lat="44.52603" lon="4.27816">
        <ele>318.063911</ele>
        <time>2021-03-27T20:59:26.965Z</time>
      </trkpt>
      <trkpt lat="44.52607" lon="4.27818">
        <ele>318.135126</ele>
        <time>2021-03-27T20:59:28.543Z</time>
      </trkpt>
      <trkpt lat="44.52619" lon="4.27835">
        <ele>318.460133</ele>
        <time>2021-03-27T20:59:35.748Z</time>
      </trkpt>
      <trkpt lat="44.52636" lon="4.27852">
        <ele>318.880011</ele>
        <time>2021-03-27T20:59:45.050Z</time>
      </trkpt>
      <trkpt lat="44.52665" lon="4.27874">
        <ele>319.512537</ele>
        <time>2021-03-27T20:59:59.058Z</time>
      </trkpt>
      <trkpt lat="44.52705" lon="4.27898">
        <ele>319.197555</ele>
        <time>2021-03-27T21:00:17.545Z</time>
      </trkpt>
      <trkpt lat="44.52721" lon="4.27901">
        <ele>319.0432</ele>
        <time>2021-03-27T21:00:24.313Z</time>
      </trkpt>
      <trkpt lat="44.52716" lon="4.27906">
        <ele>318.986531</ele>
        <time>2021-03-27T21:00:26.802Z</time>
      </trkpt>
      <trkpt lat="44.52713" lon="4.27916">
        <ele>318.908282</ele>
        <time>2021-03-27T21:00:30.242Z</time>
      </trkpt>
      <trkpt lat="44.5271" lon="4.2792">
        <ele>318.867651</ele>
        <time>2021-03-27T21:00:32.028Z</time>
      </trkpt>
      <trkpt lat="44.52704" lon="4.27924">
        <ele>318.799955</ele>
        <time>2021-03-27T21:00:34.998Z</time>
      </trkpt>
      <trkpt lat="44.52694" lon="4.27939">
        <ele>318.661111</ele>
        <time>2021-03-27T21:00:41.098Z</time>
      </trkpt>
      <trkpt lat="44.52694" lon="4.2795">
        <ele>318.586698</ele>
        <time>2021-03-27T21:00:44.372Z</time>
      </trkpt>
      <trkpt lat="44.52698" lon="4.27957">
        <ele>318.518123</ele>
        <time>2021-03-27T21:00:47.385Z</time>
      </trkpt>
      <trkpt lat="44.52701" lon="4.27978">
        <ele>318.370522</ele>
        <time>2021-03-27T21:00:53.879Z</time>
      </trkpt>
      <trkpt lat="44.52698" lon="4.27986">
        <ele>318.307966</ele>
        <time>2021-03-27T21:00:56.630Z</time>
      </trkpt>
      <trkpt lat="44.52687" lon="4.28002">
        <ele>318.153003</ele>
        <time>2021-03-27T21:01:03.438Z</time>
      </trkpt>
      <trkpt lat="44.52682" lon="4.28019">
        <ele>318.031734</ele>
        <time>2021-03-27T21:01:08.772Z</time>
      </trkpt>
      <trkpt lat="44.5268" lon="4.28031">
        <ele>317.938307</ele>
        <time>2021-03-27T21:01:12.883Z</time>
      </trkpt>
      <trkpt lat="44.52678" lon="4.28059">
        <ele>317.480761</ele>
        <time>2021-03-27T21:01:21.195Z</time>
      </trkpt>
      <trkpt lat="44.52672" lon="4.28094">
        <ele>316.374633</ele>
        <time>2021-03-27T21:01:32.433Z</time>
      </trkpt>
      <trkpt lat="44.52661" lon="4.28123">
        <ele>315.379112</ele>
        <time>2021-03-27T21:01:42.542Z</time>
      </trkpt>
      <trkpt lat="44.5266" lon="4.28136">
        <ele>314.996973</ele>
        <time>2021-03-27T21:01:46.426Z</time>
      </trkpt>
      <trkpt lat="44.52671" lon="4.28158">
        <ele>314.195347</ele>
        <time>2021-03-27T21:01:54.565Z</time>
      </trkpt>
      <trkpt lat="44.52668" lon="4.28183">
        <ele>313.426916</ele>
        <time>2021-03-27T21:02:02.377Z</time>
      </trkpt>
      <trkpt lat="44.52671" lon="4.2819">
        <ele>313.176886</ele>
        <time>2021-03-27T21:02:04.915Z</time>
      </trkpt>
      <trkpt lat="44.52678" lon="4.28194">
        <ele>312.863148</ele>
        <time>2021-03-27T21:02:08.096Z</time>
      </trkpt>
      <trkpt lat="44.52678" lon="4.28217">
        <ele>312.179784</ele>
        <time>2021-03-27T21:02:15.042Z</time>
      </trkpt>
      <trkpt lat="44.52677" lon="4.28221">
        <ele>312.046363</ele>
        <time>2021-03-27T21:02:16.398Z</time>
      </trkpt>
      <trkpt lat="44.52663" lon="4.28236">
        <ele>311.318136</ele>
        <time>2021-03-27T21:02:23.785Z</time>
      </trkpt>
      <trkpt lat="44.52653" lon="4.28239">
        <ele>310.861494</ele>
        <time>2021-03-27T21:02:28.412Z</time>
      </trkpt>
      <trkpt lat="44.52646" lon="4.28243">
        <ele>310.556738</ele>
        <time>2021-03-27T21:02:31.500Z</time>
      </trkpt>
      <trkpt lat="44.52616" lon="4.28278">
        <ele>307.979659</ele>
        <time>2021-03-27T21:02:48.303Z</time>
      </trkpt>
      <trkpt lat="44.52613" lon="4.28287">
        <ele>307.44819</ele>
        <time>2021-03-27T21:02:51.505Z</time>
      </trkpt>
      <trkpt lat="44.5261" lon="4.28305">
        <ele>306.509165</ele>
        <time>2021-03-27T21:02:57.158Z</time>
      </trkpt>
      <trkpt lat="44.5261" lon="4.28306">
        <ele>306.474114</ele>
        <time>2021-03-27T21:02:57.369Z</time>
      </trkpt>
      <trkpt lat="44.5262" lon="4.28323">
        <ele>305.330082</ele>
        <time>2021-03-27T21:03:01.074Z</time>
      </trkpt>
      <trkpt lat="44.5268" lon="4.28361">
        <ele>300.606793</ele>
        <time>2021-03-27T21:03:15.915Z</time>
      </trkpt>
      <trkpt lat="44.52684" lon="4.28363">
        <ele>300.338834</ele>
        <time>2021-03-27T21:03:16.850Z</time>
      </trkpt>
      <trkpt lat="44.52684" lon="4.28369">
        <ele>300.033292</ele>
        <time>2021-03-27T21:03:17.728Z</time>
      </trkpt>
      <trkpt lat="44.52674" lon="4.28416">
        <ele>297.544195</ele>
        <time>2021-03-27T21:03:25.468Z</time>
      </trkpt>
      <trkpt lat="44.52667" lon="4.28433">
        <ele>296.381978</ele>
        <time>2021-03-27T21:03:28.588Z</time>
      </trkpt>
      <trkpt lat="44.52661" lon="4.28446">
        <ele>295.421702</ele>
        <time>2021-03-27T21:03:30.994Z</time>
      </trkpt>
      <trkpt lat="44.52653" lon="4.28468">
        <ele>293.917079</ele>
        <time>2021-03-27T21:03:34.943Z</time>
      </trkpt>
      <trkpt lat="44.52641" lon="4.28571">
        <ele>287.59871</ele>
        <time>2021-03-27T21:03:51.165Z</time>
      </trkpt>
      <trkpt lat="44.52642" lon="4.28601">
        <ele>285.775186</ele>
        <time>2021-03-27T21:03:55.796Z</time>
      </trkpt>
      <trkpt lat="44.52648" lon="4.28623">
        <ele>284.357354</ele>
        <time>2021-03-27T21:03:59.499Z</time>
      </trkpt>
      <trkpt lat="44.52692" lon="4.2866">
        <ele>280.732088</ele>
        <time>2021-03-27T21:04:11.033Z</time>
      </trkpt>
      <trkpt lat="44.5268" lon="4.28701">
        <ele>279.044523</ele>
        <time>2021-03-27T21:04:18.314Z</time>
      </trkpt>
      <trkpt lat="44.52657" lon="4.28719">
        <ele>277.615399</ele>
        <time>2021-03-27T21:04:24.532Z</time>
      </trkpt>
      <trkpt lat="44.52683" lon="4.28722">
        <ele>276.191901</ele>
        <time>2021-03-27T21:04:30.648Z</time>
      </trkpt>
      <trkpt lat="44.52685" lon="4.28733">
        <ele>275.777424</ele>
        <time>2021-03-27T21:04:32.464Z</time>
      </trkpt>
      <trkpt lat="44.52666" lon="4.28773">
        <ele>273.909375</ele>
        <time>2021-03-27T21:04:40.902Z</time>
      </trkpt>
      <trkpt lat="44.52647" lon="4.28791">
        <ele>272.705677</ele>
        <time>2021-03-27T21:04:46.329Z</time>
      </trkpt>
      <trkpt lat="44.52618" lon="4.28854">
        <ele>272.736426</ele>
        <time>2021-03-27T21:05:01.463Z</time>
      </trkpt>
      <trkpt lat="44.52603" lon="4.28876">
        <ele>272.918048</ele>
        <time>2021-03-27T21:05:07.983Z</time>
      </trkpt>
      <trkpt lat="44.52611" lon="4.28886">
        <ele>273.012368</ele>
        <time>2021-03-27T21:05:11.398Z</time>
      </trkpt>
      <trkpt lat="44.52618" lon="4.289">
        <ele>273.118254</ele>
        <time>2021-03-27T21:05:14.143Z</time>
      </trkpt>
      <trkpt lat="44.52622" lon="4.28912">
        <ele>273.198476</ele>
        <time>2021-03-27T21:05:16.330Z</time>
      </trkpt>
      <trkpt lat="44.52622" lon="4.2893">
        <ele>273.307739</ele>
        <time>2021-03-27T21:05:21.066Z</time>
      </trkpt>
      <trkpt lat="44.52625" lon="4.28962">
        <ele>273.510771</ele>
        <time>2021-03-27T21:05:27.676Z</time>
      </trkpt>
      <trkpt lat="44.52643" lon="4.2898">
        <ele>273.704549</ele>
        <time>2021-03-27T21:05:36.165Z</time>
      </trkpt>
      <trkpt lat="44.52663" lon="4.29003">
        <ele>274.092249</ele>
        <time>2021-03-27T21:05:45.995Z</time>
      </trkpt>
      <trkpt lat="44.527" lon="4.2902">
        <ele>276.175462</ele>
        <time>2021-03-27T21:06:02.757Z</time>
      </trkpt>
      <trkpt lat="44.52798" lon="4.29052">
        <ele>281.404296</ele>
        <time>2021-03-27T21:06:53.063Z</time>
      </trkpt>
      <trkpt lat="44.5279" lon="4.29116">
        <ele>283.305437</ele>
        <time>2021-03-27T21:07:15.748Z</time>
      </trkpt>
      <trkpt lat="44.52787" lon="4.29131">
        <ele>283.305437</ele>
        <time>2021-03-27T21:07:21.243Z</time>
      </trkpt>
      <trkpt lat="44.5278" lon="4.29171">
        <ele>283.305437</ele>
        <time>2021-03-27T21:07:33.551Z</time>
      </trkpt>
      <trkpt lat="44.52774" lon="4.29207">
        <ele>283.305437</ele>
        <time>2021-03-27T21:07:43.292Z</time>
      </trkpt>
      <trkpt lat="44.52774" lon="4.29215">
        <ele>283.305437</ele>
        <time>2021-03-27T21:07:45.687Z</time>
      </trkpt>
      <trkpt lat="44.52777" lon="4.29221">
        <ele>283.305437</ele>
        <time>2021-03-27T21:07:47.981Z</time>
      </trkpt>
      <trkpt lat="44.52776" lon="4.29232">
        <ele>283.305437</ele>
        <time>2021-03-27T21:07:50.852Z</time>
      </trkpt>
      <trkpt lat="44.52776" lon="4.29239">
        <ele>283.305437</ele>
        <time>2021-03-27T21:07:52.230Z</time>
      </trkpt>
      <trkpt lat="44.52808" lon="4.29234">
        <ele>283.305437</ele>
        <time>2021-03-27T21:08:04.034Z</time>
      </trkpt>
      <trkpt lat="44.52822" lon="4.29232">
        <ele>283.305437</ele>
        <time>2021-03-27T21:08:08.183Z</time>
      </trkpt>
      <trkpt lat="44.5284" lon="4.29226">
        <ele>283.305437</ele>
        <time>2021-03-27T21:08:15.153Z</time>
      </trkpt>
    </trkseg>
  </trk>
</gpx>